<?xml version="1.0" encoding="UTF-8" standalone="no" ?>
<gpx xmlns="http://www.topografix.com/GPX/1/1" creator="CompeGPS" version="1.1" xmlns:xsi="http://www.w3.org/2001/XMLSchema-instance" xsi:schemaLocation="http://www.topografix.com/GPX/1/1 http://www.topografix.com/GPX/1/1/gpx.xsd http://www.garmin.com/xmlschemas/GpxExtensions/v3 http://www.garmin.com/xmlschemas/GpxExtensionsv3.xsd http://www.garmin.com/xmlschemas/TrackPointExtension/v1 http://www.garmin.com/xmlschemas/TrackPointExtensionv1.xsd" xmlns:gpxtpx="http://www.garmin.com/xmlschemas/TrackPointExtension/v1">
  <metadata>
    <link href="http://www.compegps.com">
      <text>CompeGPS TEAM, SL</text>
    </link>
    <time>2019-08-14T19:28:00Z</time>
    <bounds maxlat="42.801210" maxlon="-0.555637" minlat="42.781849" minlon="-0.639971"/>
  </metadata>
  <trk>
    <name>visaurin</name>
    <userMyTwoNav></userMyTwoNav>
    <serialNumber></serialNumber>
    <trkseg>
      <trkpt lat="42.796757" lon="-0.555637">
        <ele>1343.5</ele>
        <time>2019-08-06T11:30:41Z</time>
      </trkpt>
      <trkpt lat="42.796731" lon="-0.555660">
        <ele>1344.4</ele>
        <time>2019-08-06T11:31:04Z</time>
      </trkpt>
      <trkpt lat="42.796699" lon="-0.555708">
        <ele>1344.5</ele>
        <time>2019-08-06T11:31:25Z</time>
      </trkpt>
      <trkpt lat="42.796588" lon="-0.555792">
        <ele>1344.1</ele>
        <time>2019-08-06T11:31:40Z</time>
      </trkpt>
      <trkpt lat="42.796603" lon="-0.555928">
        <ele>1343.0</ele>
        <time>2019-08-06T11:31:55Z</time>
      </trkpt>
      <trkpt lat="42.796658" lon="-0.556011">
        <ele>1341.2</ele>
        <time>2019-08-06T11:32:13Z</time>
      </trkpt>
      <trkpt lat="42.796682" lon="-0.556154">
        <ele>1339.7</ele>
        <time>2019-08-06T11:32:24Z</time>
      </trkpt>
      <trkpt lat="42.796665" lon="-0.556261">
        <ele>1338.8</ele>
        <time>2019-08-06T11:32:37Z</time>
      </trkpt>
      <trkpt lat="42.796636" lon="-0.556394">
        <ele>1338.9</ele>
        <time>2019-08-06T11:32:46Z</time>
      </trkpt>
      <trkpt lat="42.796658" lon="-0.556541">
        <ele>1338.3</ele>
        <time>2019-08-06T11:32:57Z</time>
      </trkpt>
      <trkpt lat="42.796779" lon="-0.556560">
        <ele>1338.9</ele>
        <time>2019-08-06T11:33:06Z</time>
      </trkpt>
      <trkpt lat="42.796901" lon="-0.556619">
        <ele>1341.2</ele>
        <time>2019-08-06T11:33:19Z</time>
      </trkpt>
      <trkpt lat="42.797004" lon="-0.556605">
        <ele>1342.7</ele>
        <time>2019-08-06T11:33:32Z</time>
      </trkpt>
      <trkpt lat="42.797119" lon="-0.556594">
        <ele>1343.2</ele>
        <time>2019-08-06T11:33:40Z</time>
      </trkpt>
      <trkpt lat="42.797226" lon="-0.556586">
        <ele>1344.2</ele>
        <time>2019-08-06T11:33:48Z</time>
      </trkpt>
      <trkpt lat="42.797319" lon="-0.556656">
        <ele>1344.8</ele>
        <time>2019-08-06T11:33:55Z</time>
      </trkpt>
      <trkpt lat="42.797302" lon="-0.556805">
        <ele>1345.2</ele>
        <time>2019-08-06T11:34:02Z</time>
      </trkpt>
      <trkpt lat="42.797295" lon="-0.556959">
        <ele>1345.0</ele>
        <time>2019-08-06T11:34:14Z</time>
      </trkpt>
      <trkpt lat="42.797239" lon="-0.557086">
        <ele>1345.3</ele>
        <time>2019-08-06T11:34:21Z</time>
      </trkpt>
      <trkpt lat="42.797241" lon="-0.557253">
        <ele>1346.9</ele>
        <time>2019-08-06T11:34:31Z</time>
      </trkpt>
      <trkpt lat="42.797184" lon="-0.557391">
        <ele>1348.5</ele>
        <time>2019-08-06T11:34:44Z</time>
      </trkpt>
      <trkpt lat="42.797124" lon="-0.557521">
        <ele>1349.3</ele>
        <time>2019-08-06T11:34:53Z</time>
      </trkpt>
      <trkpt lat="42.797094" lon="-0.557664">
        <ele>1350.4</ele>
        <time>2019-08-06T11:35:01Z</time>
      </trkpt>
      <trkpt lat="42.797168" lon="-0.557763">
        <ele>1352.0</ele>
        <time>2019-08-06T11:35:09Z</time>
      </trkpt>
      <trkpt lat="42.797308" lon="-0.557754">
        <ele>1353.7</ele>
        <time>2019-08-06T11:35:18Z</time>
      </trkpt>
      <trkpt lat="42.797413" lon="-0.557693">
        <ele>1355.3</ele>
        <time>2019-08-06T11:35:28Z</time>
      </trkpt>
      <trkpt lat="42.797505" lon="-0.557591">
        <ele>1357.1</ele>
        <time>2019-08-06T11:35:36Z</time>
      </trkpt>
      <trkpt lat="42.797603" lon="-0.557571">
        <ele>1358.7</ele>
        <time>2019-08-06T11:35:45Z</time>
      </trkpt>
      <trkpt lat="42.797706" lon="-0.557564">
        <ele>1360.1</ele>
        <time>2019-08-06T11:35:52Z</time>
      </trkpt>
      <trkpt lat="42.797797" lon="-0.557468">
        <ele>1361.5</ele>
        <time>2019-08-06T11:36:00Z</time>
      </trkpt>
      <trkpt lat="42.797915" lon="-0.557361">
        <ele>1364.1</ele>
        <time>2019-08-06T11:36:15Z</time>
      </trkpt>
      <trkpt lat="42.797982" lon="-0.557409">
        <ele>1367.0</ele>
        <time>2019-08-06T11:36:25Z</time>
      </trkpt>
      <trkpt lat="42.798072" lon="-0.557514">
        <ele>1372.3</ele>
        <time>2019-08-06T11:36:42Z</time>
      </trkpt>
      <trkpt lat="42.798197" lon="-0.557527">
        <ele>1376.3</ele>
        <time>2019-08-06T11:36:56Z</time>
      </trkpt>
      <trkpt lat="42.798298" lon="-0.557472">
        <ele>1379.8</ele>
        <time>2019-08-06T11:37:10Z</time>
      </trkpt>
      <trkpt lat="42.798399" lon="-0.557435">
        <ele>1381.9</ele>
        <time>2019-08-06T11:37:20Z</time>
      </trkpt>
      <trkpt lat="42.798509" lon="-0.557400">
        <ele>1383.9</ele>
        <time>2019-08-06T11:37:31Z</time>
      </trkpt>
      <trkpt lat="42.798598" lon="-0.557384">
        <ele>1387.4</ele>
        <time>2019-08-06T11:38:02Z</time>
      </trkpt>
      <trkpt lat="42.798710" lon="-0.557422">
        <ele>1390.4</ele>
        <time>2019-08-06T11:38:16Z</time>
      </trkpt>
      <trkpt lat="42.798803" lon="-0.557397">
        <ele>1393.1</ele>
        <time>2019-08-06T11:38:29Z</time>
      </trkpt>
      <trkpt lat="42.798907" lon="-0.557459">
        <ele>1395.8</ele>
        <time>2019-08-06T11:38:37Z</time>
      </trkpt>
      <trkpt lat="42.798990" lon="-0.557528">
        <ele>1399.6</ele>
        <time>2019-08-06T11:38:45Z</time>
      </trkpt>
      <trkpt lat="42.799098" lon="-0.557585">
        <ele>1405.3</ele>
        <time>2019-08-06T11:38:55Z</time>
      </trkpt>
      <trkpt lat="42.799173" lon="-0.557680">
        <ele>1408.0</ele>
        <time>2019-08-06T11:39:04Z</time>
      </trkpt>
      <trkpt lat="42.799112" lon="-0.557802">
        <ele>1410.2</ele>
        <time>2019-08-06T11:39:14Z</time>
      </trkpt>
      <trkpt lat="42.799066" lon="-0.557945">
        <ele>1411.5</ele>
        <time>2019-08-06T11:39:22Z</time>
      </trkpt>
      <trkpt lat="42.799074" lon="-0.558019">
        <ele>1413.9</ele>
        <time>2019-08-06T11:39:35Z</time>
      </trkpt>
      <trkpt lat="42.799170" lon="-0.557902">
        <ele>1415.9</ele>
        <time>2019-08-06T11:39:44Z</time>
      </trkpt>
      <trkpt lat="42.799264" lon="-0.557845">
        <ele>1417.6</ele>
        <time>2019-08-06T11:39:53Z</time>
      </trkpt>
      <trkpt lat="42.799365" lon="-0.557828">
        <ele>1419.3</ele>
        <time>2019-08-06T11:40:01Z</time>
      </trkpt>
      <trkpt lat="42.799463" lon="-0.557821">
        <ele>1421.1</ele>
        <time>2019-08-06T11:40:08Z</time>
      </trkpt>
      <trkpt lat="42.799570" lon="-0.557789">
        <ele>1423.0</ele>
        <time>2019-08-06T11:40:16Z</time>
      </trkpt>
      <trkpt lat="42.799665" lon="-0.557769">
        <ele>1424.4</ele>
        <time>2019-08-06T11:40:23Z</time>
      </trkpt>
      <trkpt lat="42.799770" lon="-0.557714">
        <ele>1426.5</ele>
        <time>2019-08-06T11:40:32Z</time>
      </trkpt>
      <trkpt lat="42.799890" lon="-0.557683">
        <ele>1428.1</ele>
        <time>2019-08-06T11:40:40Z</time>
      </trkpt>
      <trkpt lat="42.799984" lon="-0.557632">
        <ele>1429.7</ele>
        <time>2019-08-06T11:40:49Z</time>
      </trkpt>
      <trkpt lat="42.800056" lon="-0.557639">
        <ele>1431.0</ele>
        <time>2019-08-06T11:40:55Z</time>
      </trkpt>
      <trkpt lat="42.800152" lon="-0.557636">
        <ele>1432.3</ele>
        <time>2019-08-06T11:41:02Z</time>
      </trkpt>
      <trkpt lat="42.800258" lon="-0.557639">
        <ele>1433.7</ele>
        <time>2019-08-06T11:41:09Z</time>
      </trkpt>
      <trkpt lat="42.800358" lon="-0.557615">
        <ele>1435.2</ele>
        <time>2019-08-06T11:41:17Z</time>
      </trkpt>
      <trkpt lat="42.800454" lon="-0.557591">
        <ele>1436.7</ele>
        <time>2019-08-06T11:41:25Z</time>
      </trkpt>
      <trkpt lat="42.800553" lon="-0.557562">
        <ele>1438.4</ele>
        <time>2019-08-06T11:41:33Z</time>
      </trkpt>
      <trkpt lat="42.800674" lon="-0.557547">
        <ele>1439.9</ele>
        <time>2019-08-06T11:41:42Z</time>
      </trkpt>
      <trkpt lat="42.800776" lon="-0.557541">
        <ele>1441.7</ele>
        <time>2019-08-06T11:41:51Z</time>
      </trkpt>
      <trkpt lat="42.800884" lon="-0.557499">
        <ele>1443.1</ele>
        <time>2019-08-06T11:41:59Z</time>
      </trkpt>
      <trkpt lat="42.800965" lon="-0.557579">
        <ele>1444.5</ele>
        <time>2019-08-06T11:42:07Z</time>
      </trkpt>
      <trkpt lat="42.800957" lon="-0.557716">
        <ele>1445.3</ele>
        <time>2019-08-06T11:42:15Z</time>
      </trkpt>
      <trkpt lat="42.800977" lon="-0.557841">
        <ele>1446.0</ele>
        <time>2019-08-06T11:42:23Z</time>
      </trkpt>
      <trkpt lat="42.800983" lon="-0.557967">
        <ele>1446.9</ele>
        <time>2019-08-06T11:42:30Z</time>
      </trkpt>
      <trkpt lat="42.801020" lon="-0.558079">
        <ele>1448.3</ele>
        <time>2019-08-06T11:42:38Z</time>
      </trkpt>
      <trkpt lat="42.801065" lon="-0.558198">
        <ele>1450.1</ele>
        <time>2019-08-06T11:42:46Z</time>
      </trkpt>
      <trkpt lat="42.801098" lon="-0.558325">
        <ele>1451.7</ele>
        <time>2019-08-06T11:42:55Z</time>
      </trkpt>
      <trkpt lat="42.801126" lon="-0.558447">
        <ele>1453.4</ele>
        <time>2019-08-06T11:43:04Z</time>
      </trkpt>
      <trkpt lat="42.801145" lon="-0.558579">
        <ele>1455.8</ele>
        <time>2019-08-06T11:43:12Z</time>
      </trkpt>
      <trkpt lat="42.801186" lon="-0.558706">
        <ele>1458.7</ele>
        <time>2019-08-06T11:43:21Z</time>
      </trkpt>
      <trkpt lat="42.801210" lon="-0.558831">
        <ele>1461.6</ele>
        <time>2019-08-06T11:43:30Z</time>
      </trkpt>
      <trkpt lat="42.801198" lon="-0.558944">
        <ele>1464.7</ele>
        <time>2019-08-06T11:43:40Z</time>
      </trkpt>
      <trkpt lat="42.801130" lon="-0.558994">
        <ele>1467.6</ele>
        <time>2019-08-06T11:43:52Z</time>
      </trkpt>
      <trkpt lat="42.801039" lon="-0.558959">
        <ele>1470.5</ele>
        <time>2019-08-06T11:44:01Z</time>
      </trkpt>
      <trkpt lat="42.800958" lon="-0.558892">
        <ele>1473.3</ele>
        <time>2019-08-06T11:44:09Z</time>
      </trkpt>
      <trkpt lat="42.800870" lon="-0.558890">
        <ele>1476.2</ele>
        <time>2019-08-06T11:44:18Z</time>
      </trkpt>
      <trkpt lat="42.800705" lon="-0.558699">
        <ele>1476.1</ele>
        <time>2019-08-06T11:44:26Z</time>
      </trkpt>
      <trkpt lat="42.800537" lon="-0.558671">
        <ele>1477.1</ele>
        <time>2019-08-06T11:44:29Z</time>
      </trkpt>
      <trkpt lat="42.800388" lon="-0.558675">
        <ele>1478.0</ele>
        <time>2019-08-06T11:44:32Z</time>
      </trkpt>
      <trkpt lat="42.800223" lon="-0.558870">
        <ele>1478.2</ele>
        <time>2019-08-06T11:44:42Z</time>
      </trkpt>
      <trkpt lat="42.800323" lon="-0.559046">
        <ele>1478.3</ele>
        <time>2019-08-06T11:44:51Z</time>
      </trkpt>
      <trkpt lat="42.800468" lon="-0.559157">
        <ele>1479.7</ele>
        <time>2019-08-06T11:45:02Z</time>
      </trkpt>
      <trkpt lat="42.800597" lon="-0.559310">
        <ele>1485.1</ele>
        <time>2019-08-06T11:45:11Z</time>
      </trkpt>
      <trkpt lat="42.800662" lon="-0.559482">
        <ele>1499.1</ele>
        <time>2019-08-06T11:45:22Z</time>
      </trkpt>
      <trkpt lat="42.800695" lon="-0.559686">
        <ele>1501.7</ele>
        <time>2019-08-06T11:45:33Z</time>
      </trkpt>
      <trkpt lat="42.800682" lon="-0.559871">
        <ele>1504.0</ele>
        <time>2019-08-06T11:45:43Z</time>
      </trkpt>
      <trkpt lat="42.800650" lon="-0.560080">
        <ele>1507.0</ele>
        <time>2019-08-06T11:45:54Z</time>
      </trkpt>
      <trkpt lat="42.800656" lon="-0.560244">
        <ele>1510.4</ele>
        <time>2019-08-06T11:46:09Z</time>
      </trkpt>
      <trkpt lat="42.800657" lon="-0.560393">
        <ele>1512.9</ele>
        <time>2019-08-06T11:46:20Z</time>
      </trkpt>
      <trkpt lat="42.800600" lon="-0.560515">
        <ele>1514.6</ele>
        <time>2019-08-06T11:46:28Z</time>
      </trkpt>
      <trkpt lat="42.800485" lon="-0.560567">
        <ele>1516.9</ele>
        <time>2019-08-06T11:46:37Z</time>
      </trkpt>
      <trkpt lat="42.800394" lon="-0.560672">
        <ele>1518.5</ele>
        <time>2019-08-06T11:46:46Z</time>
      </trkpt>
      <trkpt lat="42.800300" lon="-0.560766">
        <ele>1520.0</ele>
        <time>2019-08-06T11:46:56Z</time>
      </trkpt>
      <trkpt lat="42.800193" lon="-0.560836">
        <ele>1522.0</ele>
        <time>2019-08-06T11:47:09Z</time>
      </trkpt>
      <trkpt lat="42.800078" lon="-0.560894">
        <ele>1523.1</ele>
        <time>2019-08-06T11:47:19Z</time>
      </trkpt>
      <trkpt lat="42.799984" lon="-0.560952">
        <ele>1524.6</ele>
        <time>2019-08-06T11:47:27Z</time>
      </trkpt>
      <trkpt lat="42.799909" lon="-0.561026">
        <ele>1526.0</ele>
        <time>2019-08-06T11:47:34Z</time>
      </trkpt>
      <trkpt lat="42.799856" lon="-0.561140">
        <ele>1527.4</ele>
        <time>2019-08-06T11:47:42Z</time>
      </trkpt>
      <trkpt lat="42.799834" lon="-0.561255">
        <ele>1529.3</ele>
        <time>2019-08-06T11:47:50Z</time>
      </trkpt>
      <trkpt lat="42.799809" lon="-0.561386">
        <ele>1531.0</ele>
        <time>2019-08-06T11:47:58Z</time>
      </trkpt>
      <trkpt lat="42.799831" lon="-0.561524">
        <ele>1533.7</ele>
        <time>2019-08-06T11:48:06Z</time>
      </trkpt>
      <trkpt lat="42.799814" lon="-0.561655">
        <ele>1536.7</ele>
        <time>2019-08-06T11:48:16Z</time>
      </trkpt>
      <trkpt lat="42.799791" lon="-0.561777">
        <ele>1539.2</ele>
        <time>2019-08-06T11:48:26Z</time>
      </trkpt>
      <trkpt lat="42.799813" lon="-0.561921">
        <ele>1540.5</ele>
        <time>2019-08-06T11:48:34Z</time>
      </trkpt>
      <trkpt lat="42.799886" lon="-0.562053">
        <ele>1542.2</ele>
        <time>2019-08-06T11:48:42Z</time>
      </trkpt>
      <trkpt lat="42.799974" lon="-0.562127">
        <ele>1543.6</ele>
        <time>2019-08-06T11:48:50Z</time>
      </trkpt>
      <trkpt lat="42.800063" lon="-0.562202">
        <ele>1545.4</ele>
        <time>2019-08-06T11:48:58Z</time>
      </trkpt>
      <trkpt lat="42.800130" lon="-0.562288">
        <ele>1548.0</ele>
        <time>2019-08-06T11:49:06Z</time>
      </trkpt>
      <trkpt lat="42.800313" lon="-0.562291">
        <ele>1548.8</ele>
        <time>2019-08-06T11:49:15Z</time>
      </trkpt>
      <trkpt lat="42.800661" lon="-0.562254">
        <ele>1549.0</ele>
        <time>2019-08-06T11:49:23Z</time>
      </trkpt>
      <trkpt lat="42.800925" lon="-0.562360">
        <ele>1550.2</ele>
        <time>2019-08-06T11:49:34Z</time>
      </trkpt>
      <trkpt lat="42.800996" lon="-0.562675">
        <ele>1552.3</ele>
        <time>2019-08-06T11:49:45Z</time>
      </trkpt>
      <trkpt lat="42.800756" lon="-0.562693">
        <ele>1553.2</ele>
        <time>2019-08-06T11:49:54Z</time>
      </trkpt>
      <trkpt lat="42.800573" lon="-0.562877">
        <ele>1559.0</ele>
        <time>2019-08-06T11:50:02Z</time>
      </trkpt>
      <trkpt lat="42.800436" lon="-0.563108">
        <ele>1561.7</ele>
        <time>2019-08-06T11:50:11Z</time>
      </trkpt>
      <trkpt lat="42.800411" lon="-0.563198">
        <ele>1564.4</ele>
        <time>2019-08-06T11:50:21Z</time>
      </trkpt>
      <trkpt lat="42.800486" lon="-0.563230">
        <ele>1568.7</ele>
        <time>2019-08-06T11:50:31Z</time>
      </trkpt>
      <trkpt lat="42.800566" lon="-0.563270">
        <ele>1568.3</ele>
        <time>2019-08-06T11:50:39Z</time>
      </trkpt>
      <trkpt lat="42.800443" lon="-0.563532">
        <ele>1570.4</ele>
        <time>2019-08-06T11:50:46Z</time>
      </trkpt>
      <trkpt lat="42.800427" lon="-0.563731">
        <ele>1578.9</ele>
        <time>2019-08-06T11:50:53Z</time>
      </trkpt>
      <trkpt lat="42.800383" lon="-0.563869">
        <ele>1581.7</ele>
        <time>2019-08-06T11:51:02Z</time>
      </trkpt>
      <trkpt lat="42.800186" lon="-0.563962">
        <ele>1596.5</ele>
        <time>2019-08-06T11:51:11Z</time>
      </trkpt>
      <trkpt lat="42.800065" lon="-0.563928">
        <ele>1568.2</ele>
        <time>2019-08-06T11:51:22Z</time>
      </trkpt>
      <trkpt lat="42.799882" lon="-0.563875">
        <ele>1599.5</ele>
        <time>2019-08-06T11:51:35Z</time>
      </trkpt>
      <trkpt lat="42.799765" lon="-0.563825">
        <ele>1603.4</ele>
        <time>2019-08-06T11:51:52Z</time>
      </trkpt>
      <trkpt lat="42.799680" lon="-0.563720">
        <ele>1606.4</ele>
        <time>2019-08-06T11:52:03Z</time>
      </trkpt>
      <trkpt lat="42.799563" lon="-0.563679">
        <ele>1609.1</ele>
        <time>2019-08-06T11:52:16Z</time>
      </trkpt>
      <trkpt lat="42.799462" lon="-0.563710">
        <ele>1611.1</ele>
        <time>2019-08-06T11:52:26Z</time>
      </trkpt>
      <trkpt lat="42.799366" lon="-0.563749">
        <ele>1613.6</ele>
        <time>2019-08-06T11:52:35Z</time>
      </trkpt>
      <trkpt lat="42.799277" lon="-0.563826">
        <ele>1614.9</ele>
        <time>2019-08-06T11:52:42Z</time>
      </trkpt>
      <trkpt lat="42.799162" lon="-0.563887">
        <ele>1615.8</ele>
        <time>2019-08-06T11:52:49Z</time>
      </trkpt>
      <trkpt lat="42.799070" lon="-0.563959">
        <ele>1617.7</ele>
        <time>2019-08-06T11:52:57Z</time>
      </trkpt>
      <trkpt lat="42.798984" lon="-0.564041">
        <ele>1620.4</ele>
        <time>2019-08-06T11:53:05Z</time>
      </trkpt>
      <trkpt lat="42.798912" lon="-0.564117">
        <ele>1623.7</ele>
        <time>2019-08-06T11:53:13Z</time>
      </trkpt>
      <trkpt lat="42.798839" lon="-0.564216">
        <ele>1626.9</ele>
        <time>2019-08-06T11:53:21Z</time>
      </trkpt>
      <trkpt lat="42.798752" lon="-0.564209">
        <ele>1629.5</ele>
        <time>2019-08-06T11:53:28Z</time>
      </trkpt>
      <trkpt lat="42.798707" lon="-0.564315">
        <ele>1632.9</ele>
        <time>2019-08-06T11:53:34Z</time>
      </trkpt>
      <trkpt lat="42.798683" lon="-0.564447">
        <ele>1635.9</ele>
        <time>2019-08-06T11:53:40Z</time>
      </trkpt>
      <trkpt lat="42.798693" lon="-0.564569">
        <ele>1638.1</ele>
        <time>2019-08-06T11:53:46Z</time>
      </trkpt>
      <trkpt lat="42.798649" lon="-0.564678">
        <ele>1640.3</ele>
        <time>2019-08-06T11:53:54Z</time>
      </trkpt>
      <trkpt lat="42.798605" lon="-0.564791">
        <ele>1643.3</ele>
        <time>2019-08-06T11:54:04Z</time>
      </trkpt>
      <trkpt lat="42.798572" lon="-0.564915">
        <ele>1644.7</ele>
        <time>2019-08-06T11:54:11Z</time>
      </trkpt>
      <trkpt lat="42.798517" lon="-0.565018">
        <ele>1646.3</ele>
        <time>2019-08-06T11:54:18Z</time>
      </trkpt>
      <trkpt lat="42.798483" lon="-0.565143">
        <ele>1647.3</ele>
        <time>2019-08-06T11:54:25Z</time>
      </trkpt>
      <trkpt lat="42.798462" lon="-0.565273">
        <ele>1648.6</ele>
        <time>2019-08-06T11:54:32Z</time>
      </trkpt>
      <trkpt lat="42.798476" lon="-0.565384">
        <ele>1650.7</ele>
        <time>2019-08-06T11:54:41Z</time>
      </trkpt>
      <trkpt lat="42.798543" lon="-0.565459">
        <ele>1651.5</ele>
        <time>2019-08-06T11:54:46Z</time>
      </trkpt>
      <trkpt lat="42.798611" lon="-0.565543">
        <ele>1652.9</ele>
        <time>2019-08-06T11:54:52Z</time>
      </trkpt>
      <trkpt lat="42.798685" lon="-0.565610">
        <ele>1654.3</ele>
        <time>2019-08-06T11:54:59Z</time>
      </trkpt>
      <trkpt lat="42.798748" lon="-0.565675">
        <ele>1655.6</ele>
        <time>2019-08-06T11:55:05Z</time>
      </trkpt>
      <trkpt lat="42.798811" lon="-0.565731">
        <ele>1656.1</ele>
        <time>2019-08-06T11:55:10Z</time>
      </trkpt>
      <trkpt lat="42.798862" lon="-0.565799">
        <ele>1656.4</ele>
        <time>2019-08-06T11:55:15Z</time>
      </trkpt>
      <trkpt lat="42.798908" lon="-0.565900">
        <ele>1656.8</ele>
        <time>2019-08-06T11:55:20Z</time>
      </trkpt>
      <trkpt lat="42.798955" lon="-0.566037">
        <ele>1657.6</ele>
        <time>2019-08-06T11:55:26Z</time>
      </trkpt>
      <trkpt lat="42.799029" lon="-0.566141">
        <ele>1659.2</ele>
        <time>2019-08-06T11:55:33Z</time>
      </trkpt>
      <trkpt lat="42.799074" lon="-0.566245">
        <ele>1660.8</ele>
        <time>2019-08-06T11:55:39Z</time>
      </trkpt>
      <trkpt lat="42.799131" lon="-0.566356">
        <ele>1662.9</ele>
        <time>2019-08-06T11:55:45Z</time>
      </trkpt>
      <trkpt lat="42.799163" lon="-0.566482">
        <ele>1665.3</ele>
        <time>2019-08-06T11:55:51Z</time>
      </trkpt>
      <trkpt lat="42.799168" lon="-0.566609">
        <ele>1667.5</ele>
        <time>2019-08-06T11:55:57Z</time>
      </trkpt>
      <trkpt lat="42.799153" lon="-0.566738">
        <ele>1669.0</ele>
        <time>2019-08-06T11:56:03Z</time>
      </trkpt>
      <trkpt lat="42.799116" lon="-0.566862">
        <ele>1671.0</ele>
        <time>2019-08-06T11:56:09Z</time>
      </trkpt>
      <trkpt lat="42.799081" lon="-0.566985">
        <ele>1673.0</ele>
        <time>2019-08-06T11:56:15Z</time>
      </trkpt>
      <trkpt lat="42.799092" lon="-0.567099">
        <ele>1675.0</ele>
        <time>2019-08-06T11:56:22Z</time>
      </trkpt>
      <trkpt lat="42.799120" lon="-0.567220">
        <ele>1676.3</ele>
        <time>2019-08-06T11:56:29Z</time>
      </trkpt>
      <trkpt lat="42.799151" lon="-0.567322">
        <ele>1677.7</ele>
        <time>2019-08-06T11:56:35Z</time>
      </trkpt>
      <trkpt lat="42.799177" lon="-0.567461">
        <ele>1679.2</ele>
        <time>2019-08-06T11:56:42Z</time>
      </trkpt>
      <trkpt lat="42.799151" lon="-0.567589">
        <ele>1681.3</ele>
        <time>2019-08-06T11:56:49Z</time>
      </trkpt>
      <trkpt lat="42.799192" lon="-0.567695">
        <ele>1682.7</ele>
        <time>2019-08-06T11:56:56Z</time>
      </trkpt>
      <trkpt lat="42.799202" lon="-0.567831">
        <ele>1683.6</ele>
        <time>2019-08-06T11:57:03Z</time>
      </trkpt>
      <trkpt lat="42.799221" lon="-0.567967">
        <ele>1684.9</ele>
        <time>2019-08-06T11:57:10Z</time>
      </trkpt>
      <trkpt lat="42.799197" lon="-0.568099">
        <ele>1686.4</ele>
        <time>2019-08-06T11:57:16Z</time>
      </trkpt>
      <trkpt lat="42.799205" lon="-0.568240">
        <ele>1688.5</ele>
        <time>2019-08-06T11:57:23Z</time>
      </trkpt>
      <trkpt lat="42.799215" lon="-0.568377">
        <ele>1690.3</ele>
        <time>2019-08-06T11:57:29Z</time>
      </trkpt>
      <trkpt lat="42.799239" lon="-0.568503">
        <ele>1692.2</ele>
        <time>2019-08-06T11:57:39Z</time>
      </trkpt>
      <trkpt lat="42.799261" lon="-0.568612">
        <ele>1693.2</ele>
        <time>2019-08-06T11:57:48Z</time>
      </trkpt>
      <trkpt lat="42.799307" lon="-0.568729">
        <ele>1693.0</ele>
        <time>2019-08-06T11:58:08Z</time>
      </trkpt>
      <trkpt lat="42.799339" lon="-0.568846">
        <ele>1692.3</ele>
        <time>2019-08-06T11:58:18Z</time>
      </trkpt>
      <trkpt lat="42.799378" lon="-0.568961">
        <ele>1692.1</ele>
        <time>2019-08-06T11:58:25Z</time>
      </trkpt>
      <trkpt lat="42.799436" lon="-0.569050">
        <ele>1691.7</ele>
        <time>2019-08-06T11:58:32Z</time>
      </trkpt>
      <trkpt lat="42.799482" lon="-0.569155">
        <ele>1691.2</ele>
        <time>2019-08-06T11:58:39Z</time>
      </trkpt>
      <trkpt lat="42.799495" lon="-0.569268">
        <ele>1690.8</ele>
        <time>2019-08-06T11:58:46Z</time>
      </trkpt>
      <trkpt lat="42.799468" lon="-0.569389">
        <ele>1690.2</ele>
        <time>2019-08-06T11:58:55Z</time>
      </trkpt>
      <trkpt lat="42.799498" lon="-0.569502">
        <ele>1690.2</ele>
        <time>2019-08-06T11:59:03Z</time>
      </trkpt>
      <trkpt lat="42.799551" lon="-0.569606">
        <ele>1690.9</ele>
        <time>2019-08-06T11:59:11Z</time>
      </trkpt>
      <trkpt lat="42.799561" lon="-0.569743">
        <ele>1691.8</ele>
        <time>2019-08-06T11:59:19Z</time>
      </trkpt>
      <trkpt lat="42.799553" lon="-0.569870">
        <ele>1692.4</ele>
        <time>2019-08-06T11:59:26Z</time>
      </trkpt>
      <trkpt lat="42.799547" lon="-0.569987">
        <ele>1693.2</ele>
        <time>2019-08-06T11:59:33Z</time>
      </trkpt>
      <trkpt lat="42.799595" lon="-0.570107">
        <ele>1694.3</ele>
        <time>2019-08-06T11:59:40Z</time>
      </trkpt>
      <trkpt lat="42.799652" lon="-0.570217">
        <ele>1695.7</ele>
        <time>2019-08-06T11:59:47Z</time>
      </trkpt>
      <trkpt lat="42.799679" lon="-0.570359">
        <ele>1697.2</ele>
        <time>2019-08-06T11:59:55Z</time>
      </trkpt>
      <trkpt lat="42.799734" lon="-0.570473">
        <ele>1698.9</ele>
        <time>2019-08-06T12:00:03Z</time>
      </trkpt>
      <trkpt lat="42.799783" lon="-0.570586">
        <ele>1701.1</ele>
        <time>2019-08-06T12:00:10Z</time>
      </trkpt>
      <trkpt lat="42.799841" lon="-0.570687">
        <ele>1703.8</ele>
        <time>2019-08-06T12:00:18Z</time>
      </trkpt>
      <trkpt lat="42.799921" lon="-0.570775">
        <ele>1706.9</ele>
        <time>2019-08-06T12:00:26Z</time>
      </trkpt>
      <trkpt lat="42.799998" lon="-0.570851">
        <ele>1709.7</ele>
        <time>2019-08-06T12:00:34Z</time>
      </trkpt>
      <trkpt lat="42.800024" lon="-0.570978">
        <ele>1711.8</ele>
        <time>2019-08-06T12:00:42Z</time>
      </trkpt>
      <trkpt lat="42.800025" lon="-0.571109">
        <ele>1713.8</ele>
        <time>2019-08-06T12:00:51Z</time>
      </trkpt>
      <trkpt lat="42.800026" lon="-0.571233">
        <ele>1715.5</ele>
        <time>2019-08-06T12:00:59Z</time>
      </trkpt>
      <trkpt lat="42.800019" lon="-0.571358">
        <ele>1717.1</ele>
        <time>2019-08-06T12:01:06Z</time>
      </trkpt>
      <trkpt lat="42.800006" lon="-0.571497">
        <ele>1718.9</ele>
        <time>2019-08-06T12:01:14Z</time>
      </trkpt>
      <trkpt lat="42.800015" lon="-0.571628">
        <ele>1720.5</ele>
        <time>2019-08-06T12:01:21Z</time>
      </trkpt>
      <trkpt lat="42.800024" lon="-0.571762">
        <ele>1722.5</ele>
        <time>2019-08-06T12:01:29Z</time>
      </trkpt>
      <trkpt lat="42.800046" lon="-0.571880">
        <ele>1724.1</ele>
        <time>2019-08-06T12:01:36Z</time>
      </trkpt>
      <trkpt lat="42.800055" lon="-0.572017">
        <ele>1725.5</ele>
        <time>2019-08-06T12:01:44Z</time>
      </trkpt>
      <trkpt lat="42.800075" lon="-0.572154">
        <ele>1726.7</ele>
        <time>2019-08-06T12:01:51Z</time>
      </trkpt>
      <trkpt lat="42.800101" lon="-0.572279">
        <ele>1728.8</ele>
        <time>2019-08-06T12:01:58Z</time>
      </trkpt>
      <trkpt lat="42.800105" lon="-0.572408">
        <ele>1730.7</ele>
        <time>2019-08-06T12:02:06Z</time>
      </trkpt>
      <trkpt lat="42.800096" lon="-0.572550">
        <ele>1732.9</ele>
        <time>2019-08-06T12:02:14Z</time>
      </trkpt>
      <trkpt lat="42.800116" lon="-0.572675">
        <ele>1735.1</ele>
        <time>2019-08-06T12:02:23Z</time>
      </trkpt>
      <trkpt lat="42.800116" lon="-0.572809">
        <ele>1736.7</ele>
        <time>2019-08-06T12:02:31Z</time>
      </trkpt>
      <trkpt lat="42.800081" lon="-0.572933">
        <ele>1737.9</ele>
        <time>2019-08-06T12:02:38Z</time>
      </trkpt>
      <trkpt lat="42.800065" lon="-0.573058">
        <ele>1738.8</ele>
        <time>2019-08-06T12:02:45Z</time>
      </trkpt>
      <trkpt lat="42.800008" lon="-0.573152">
        <ele>1739.3</ele>
        <time>2019-08-06T12:02:52Z</time>
      </trkpt>
      <trkpt lat="42.799973" lon="-0.573265">
        <ele>1739.9</ele>
        <time>2019-08-06T12:02:59Z</time>
      </trkpt>
      <trkpt lat="42.799960" lon="-0.573390">
        <ele>1740.6</ele>
        <time>2019-08-06T12:03:06Z</time>
      </trkpt>
      <trkpt lat="42.799953" lon="-0.573522">
        <ele>1741.2</ele>
        <time>2019-08-06T12:03:13Z</time>
      </trkpt>
      <trkpt lat="42.799950" lon="-0.573655">
        <ele>1742.1</ele>
        <time>2019-08-06T12:03:22Z</time>
      </trkpt>
      <trkpt lat="42.799941" lon="-0.573783">
        <ele>1742.8</ele>
        <time>2019-08-06T12:03:29Z</time>
      </trkpt>
      <trkpt lat="42.799944" lon="-0.573930">
        <ele>1743.3</ele>
        <time>2019-08-06T12:03:36Z</time>
      </trkpt>
      <trkpt lat="42.799953" lon="-0.574056">
        <ele>1743.5</ele>
        <time>2019-08-06T12:03:43Z</time>
      </trkpt>
      <trkpt lat="42.799962" lon="-0.574196">
        <ele>1743.7</ele>
        <time>2019-08-06T12:03:51Z</time>
      </trkpt>
      <trkpt lat="42.799956" lon="-0.574326">
        <ele>1744.3</ele>
        <time>2019-08-06T12:03:59Z</time>
      </trkpt>
      <trkpt lat="42.799948" lon="-0.574459">
        <ele>1744.9</ele>
        <time>2019-08-06T12:04:07Z</time>
      </trkpt>
      <trkpt lat="42.799910" lon="-0.574577">
        <ele>1745.9</ele>
        <time>2019-08-06T12:04:14Z</time>
      </trkpt>
      <trkpt lat="42.799861" lon="-0.574693">
        <ele>1747.1</ele>
        <time>2019-08-06T12:04:22Z</time>
      </trkpt>
      <trkpt lat="42.799803" lon="-0.574833">
        <ele>1748.7</ele>
        <time>2019-08-06T12:04:30Z</time>
      </trkpt>
      <trkpt lat="42.799737" lon="-0.574922">
        <ele>1749.9</ele>
        <time>2019-08-06T12:04:41Z</time>
      </trkpt>
      <trkpt lat="42.799689" lon="-0.575003">
        <ele>1751.9</ele>
        <time>2019-08-06T12:04:53Z</time>
      </trkpt>
      <trkpt lat="42.799659" lon="-0.575128">
        <ele>1752.8</ele>
        <time>2019-08-06T12:05:00Z</time>
      </trkpt>
      <trkpt lat="42.799634" lon="-0.575255">
        <ele>1753.7</ele>
        <time>2019-08-06T12:05:06Z</time>
      </trkpt>
      <trkpt lat="42.799620" lon="-0.575379">
        <ele>1754.2</ele>
        <time>2019-08-06T12:05:13Z</time>
      </trkpt>
      <trkpt lat="42.799606" lon="-0.575513">
        <ele>1754.6</ele>
        <time>2019-08-06T12:05:20Z</time>
      </trkpt>
      <trkpt lat="42.799584" lon="-0.575637">
        <ele>1755.7</ele>
        <time>2019-08-06T12:05:28Z</time>
      </trkpt>
      <trkpt lat="42.799520" lon="-0.575727">
        <ele>1757.1</ele>
        <time>2019-08-06T12:05:35Z</time>
      </trkpt>
      <trkpt lat="42.799456" lon="-0.575813">
        <ele>1759.6</ele>
        <time>2019-08-06T12:05:43Z</time>
      </trkpt>
      <trkpt lat="42.799382" lon="-0.575867">
        <ele>1761.1</ele>
        <time>2019-08-06T12:05:51Z</time>
      </trkpt>
      <trkpt lat="42.799314" lon="-0.575932">
        <ele>1762.2</ele>
        <time>2019-08-06T12:06:00Z</time>
      </trkpt>
      <trkpt lat="42.799272" lon="-0.576042">
        <ele>1763.0</ele>
        <time>2019-08-06T12:06:07Z</time>
      </trkpt>
      <trkpt lat="42.799220" lon="-0.576141">
        <ele>1763.4</ele>
        <time>2019-08-06T12:06:14Z</time>
      </trkpt>
      <trkpt lat="42.799168" lon="-0.576238">
        <ele>1763.8</ele>
        <time>2019-08-06T12:06:21Z</time>
      </trkpt>
      <trkpt lat="42.799097" lon="-0.576324">
        <ele>1764.5</ele>
        <time>2019-08-06T12:06:28Z</time>
      </trkpt>
      <trkpt lat="42.799037" lon="-0.576405">
        <ele>1765.2</ele>
        <time>2019-08-06T12:06:35Z</time>
      </trkpt>
      <trkpt lat="42.798974" lon="-0.576490">
        <ele>1765.6</ele>
        <time>2019-08-06T12:06:41Z</time>
      </trkpt>
      <trkpt lat="42.798892" lon="-0.576563">
        <ele>1766.1</ele>
        <time>2019-08-06T12:06:48Z</time>
      </trkpt>
      <trkpt lat="42.798833" lon="-0.576672">
        <ele>1766.2</ele>
        <time>2019-08-06T12:06:55Z</time>
      </trkpt>
      <trkpt lat="42.798784" lon="-0.576778">
        <ele>1766.6</ele>
        <time>2019-08-06T12:07:03Z</time>
      </trkpt>
      <trkpt lat="42.798715" lon="-0.576841">
        <ele>1768.1</ele>
        <time>2019-08-06T12:07:09Z</time>
      </trkpt>
      <trkpt lat="42.798628" lon="-0.576889">
        <ele>1769.8</ele>
        <time>2019-08-06T12:07:16Z</time>
      </trkpt>
      <trkpt lat="42.798542" lon="-0.576890">
        <ele>1772.5</ele>
        <time>2019-08-06T12:07:25Z</time>
      </trkpt>
      <trkpt lat="42.798480" lon="-0.576977">
        <ele>1775.1</ele>
        <time>2019-08-06T12:07:33Z</time>
      </trkpt>
      <trkpt lat="42.798433" lon="-0.577063">
        <ele>1777.9</ele>
        <time>2019-08-06T12:07:44Z</time>
      </trkpt>
      <trkpt lat="42.798376" lon="-0.577164">
        <ele>1780.5</ele>
        <time>2019-08-06T12:07:54Z</time>
      </trkpt>
      <trkpt lat="42.798312" lon="-0.577250">
        <ele>1782.8</ele>
        <time>2019-08-06T12:08:03Z</time>
      </trkpt>
      <trkpt lat="42.798258" lon="-0.577328">
        <ele>1784.8</ele>
        <time>2019-08-06T12:08:12Z</time>
      </trkpt>
      <trkpt lat="42.798181" lon="-0.577401">
        <ele>1786.0</ele>
        <time>2019-08-06T12:08:20Z</time>
      </trkpt>
      <trkpt lat="42.798127" lon="-0.577513">
        <ele>1787.2</ele>
        <time>2019-08-06T12:08:28Z</time>
      </trkpt>
      <trkpt lat="42.798107" lon="-0.577646">
        <ele>1788.2</ele>
        <time>2019-08-06T12:08:36Z</time>
      </trkpt>
      <trkpt lat="42.798102" lon="-0.577775">
        <ele>1789.0</ele>
        <time>2019-08-06T12:08:43Z</time>
      </trkpt>
      <trkpt lat="42.798090" lon="-0.577905">
        <ele>1789.7</ele>
        <time>2019-08-06T12:08:51Z</time>
      </trkpt>
      <trkpt lat="42.798062" lon="-0.578022">
        <ele>1790.3</ele>
        <time>2019-08-06T12:08:58Z</time>
      </trkpt>
      <trkpt lat="42.798053" lon="-0.578135">
        <ele>1791.2</ele>
        <time>2019-08-06T12:09:05Z</time>
      </trkpt>
      <trkpt lat="42.798052" lon="-0.578253">
        <ele>1792.2</ele>
        <time>2019-08-06T12:09:11Z</time>
      </trkpt>
      <trkpt lat="42.798061" lon="-0.578378">
        <ele>1791.9</ele>
        <time>2019-08-06T12:09:18Z</time>
      </trkpt>
      <trkpt lat="42.798013" lon="-0.578488">
        <ele>1791.9</ele>
        <time>2019-08-06T12:09:27Z</time>
      </trkpt>
      <trkpt lat="42.797984" lon="-0.578611">
        <ele>1792.2</ele>
        <time>2019-08-06T12:09:34Z</time>
      </trkpt>
      <trkpt lat="42.797947" lon="-0.578730">
        <ele>1792.1</ele>
        <time>2019-08-06T12:09:41Z</time>
      </trkpt>
      <trkpt lat="42.797921" lon="-0.578850">
        <ele>1791.6</ele>
        <time>2019-08-06T12:09:48Z</time>
      </trkpt>
      <trkpt lat="42.797886" lon="-0.578975">
        <ele>1791.5</ele>
        <time>2019-08-06T12:09:55Z</time>
      </trkpt>
      <trkpt lat="42.797843" lon="-0.579095">
        <ele>1792.0</ele>
        <time>2019-08-06T12:10:02Z</time>
      </trkpt>
      <trkpt lat="42.797774" lon="-0.579151">
        <ele>1793.4</ele>
        <time>2019-08-06T12:10:08Z</time>
      </trkpt>
      <trkpt lat="42.797715" lon="-0.579244">
        <ele>1794.3</ele>
        <time>2019-08-06T12:10:15Z</time>
      </trkpt>
      <trkpt lat="42.797663" lon="-0.579344">
        <ele>1795.3</ele>
        <time>2019-08-06T12:10:22Z</time>
      </trkpt>
      <trkpt lat="42.797616" lon="-0.579457">
        <ele>1796.0</ele>
        <time>2019-08-06T12:10:30Z</time>
      </trkpt>
      <trkpt lat="42.797616" lon="-0.579599">
        <ele>1796.6</ele>
        <time>2019-08-06T12:10:37Z</time>
      </trkpt>
      <trkpt lat="42.797606" lon="-0.579740">
        <ele>1797.4</ele>
        <time>2019-08-06T12:10:45Z</time>
      </trkpt>
      <trkpt lat="42.797579" lon="-0.579856">
        <ele>1798.1</ele>
        <time>2019-08-06T12:10:52Z</time>
      </trkpt>
      <trkpt lat="42.797514" lon="-0.579955">
        <ele>1799.0</ele>
        <time>2019-08-06T12:10:59Z</time>
      </trkpt>
      <trkpt lat="42.797463" lon="-0.580073">
        <ele>1799.8</ele>
        <time>2019-08-06T12:11:07Z</time>
      </trkpt>
      <trkpt lat="42.797415" lon="-0.580188">
        <ele>1801.3</ele>
        <time>2019-08-06T12:11:15Z</time>
      </trkpt>
      <trkpt lat="42.797380" lon="-0.580302">
        <ele>1802.2</ele>
        <time>2019-08-06T12:11:22Z</time>
      </trkpt>
      <trkpt lat="42.797344" lon="-0.580428">
        <ele>1802.7</ele>
        <time>2019-08-06T12:11:30Z</time>
      </trkpt>
      <trkpt lat="42.797305" lon="-0.580555">
        <ele>1803.6</ele>
        <time>2019-08-06T12:11:38Z</time>
      </trkpt>
      <trkpt lat="42.797277" lon="-0.580675">
        <ele>1804.1</ele>
        <time>2019-08-06T12:11:46Z</time>
      </trkpt>
      <trkpt lat="42.797251" lon="-0.580797">
        <ele>1804.7</ele>
        <time>2019-08-06T12:11:53Z</time>
      </trkpt>
      <trkpt lat="42.797204" lon="-0.580916">
        <ele>1805.3</ele>
        <time>2019-08-06T12:12:00Z</time>
      </trkpt>
      <trkpt lat="42.797181" lon="-0.581058">
        <ele>1805.8</ele>
        <time>2019-08-06T12:12:08Z</time>
      </trkpt>
      <trkpt lat="42.797164" lon="-0.581188">
        <ele>1806.7</ele>
        <time>2019-08-06T12:12:16Z</time>
      </trkpt>
      <trkpt lat="42.797124" lon="-0.581317">
        <ele>1807.7</ele>
        <time>2019-08-06T12:12:23Z</time>
      </trkpt>
      <trkpt lat="42.797085" lon="-0.581422">
        <ele>1808.2</ele>
        <time>2019-08-06T12:12:31Z</time>
      </trkpt>
      <trkpt lat="42.797086" lon="-0.581537">
        <ele>1808.1</ele>
        <time>2019-08-06T12:12:39Z</time>
      </trkpt>
      <trkpt lat="42.797078" lon="-0.581655">
        <ele>1807.6</ele>
        <time>2019-08-06T12:12:46Z</time>
      </trkpt>
      <trkpt lat="42.797066" lon="-0.581780">
        <ele>1807.7</ele>
        <time>2019-08-06T12:12:53Z</time>
      </trkpt>
      <trkpt lat="42.797038" lon="-0.581907">
        <ele>1807.8</ele>
        <time>2019-08-06T12:13:00Z</time>
      </trkpt>
      <trkpt lat="42.797018" lon="-0.582039">
        <ele>1807.7</ele>
        <time>2019-08-06T12:13:08Z</time>
      </trkpt>
      <trkpt lat="42.796994" lon="-0.582196">
        <ele>1807.6</ele>
        <time>2019-08-06T12:13:16Z</time>
      </trkpt>
      <trkpt lat="42.796970" lon="-0.582336">
        <ele>1807.7</ele>
        <time>2019-08-06T12:13:24Z</time>
      </trkpt>
      <trkpt lat="42.796956" lon="-0.582465">
        <ele>1807.8</ele>
        <time>2019-08-06T12:13:32Z</time>
      </trkpt>
      <trkpt lat="42.796933" lon="-0.582577">
        <ele>1808.0</ele>
        <time>2019-08-06T12:13:39Z</time>
      </trkpt>
      <trkpt lat="42.796915" lon="-0.582707">
        <ele>1808.2</ele>
        <time>2019-08-06T12:13:50Z</time>
      </trkpt>
      <trkpt lat="42.796886" lon="-0.582812">
        <ele>1808.5</ele>
        <time>2019-08-06T12:13:57Z</time>
      </trkpt>
      <trkpt lat="42.796857" lon="-0.582952">
        <ele>1808.8</ele>
        <time>2019-08-06T12:14:05Z</time>
      </trkpt>
      <trkpt lat="42.796836" lon="-0.583076">
        <ele>1809.0</ele>
        <time>2019-08-06T12:14:13Z</time>
      </trkpt>
      <trkpt lat="42.796825" lon="-0.583214">
        <ele>1809.2</ele>
        <time>2019-08-06T12:14:22Z</time>
      </trkpt>
      <trkpt lat="42.796819" lon="-0.583345">
        <ele>1809.5</ele>
        <time>2019-08-06T12:14:31Z</time>
      </trkpt>
      <trkpt lat="42.796784" lon="-0.583462">
        <ele>1808.5</ele>
        <time>2019-08-06T12:15:40Z</time>
      </trkpt>
      <trkpt lat="42.796935" lon="-0.583765">
        <ele>1810.1</ele>
        <time>2019-08-06T12:16:50Z</time>
      </trkpt>
      <trkpt lat="42.797057" lon="-0.584202">
        <ele>1804.0</ele>
        <time>2019-08-06T12:16:59Z</time>
      </trkpt>
      <trkpt lat="42.797161" lon="-0.584537">
        <ele>1796.1</ele>
        <time>2019-08-06T12:17:08Z</time>
      </trkpt>
      <trkpt lat="42.797410" lon="-0.584992">
        <ele>1785.3</ele>
        <time>2019-08-06T12:17:17Z</time>
      </trkpt>
      <trkpt lat="42.797512" lon="-0.585479">
        <ele>1775.7</ele>
        <time>2019-08-06T12:17:26Z</time>
      </trkpt>
      <trkpt lat="42.797538" lon="-0.586122">
        <ele>1765.4</ele>
        <time>2019-08-06T12:17:36Z</time>
      </trkpt>
      <trkpt lat="42.797555" lon="-0.586564">
        <ele>1761.3</ele>
        <time>2019-08-06T12:17:40Z</time>
      </trkpt>
      <trkpt lat="42.797518" lon="-0.587082">
        <ele>1755.5</ele>
        <time>2019-08-06T12:17:44Z</time>
      </trkpt>
      <trkpt lat="42.797409" lon="-0.587564">
        <ele>1752.8</ele>
        <time>2019-08-06T12:17:47Z</time>
      </trkpt>
      <trkpt lat="42.797297" lon="-0.587714">
        <ele>1754.9</ele>
        <time>2019-08-06T12:17:58Z</time>
      </trkpt>
      <trkpt lat="42.797107" lon="-0.588006">
        <ele>1758.1</ele>
        <time>2019-08-06T12:18:22Z</time>
      </trkpt>
      <trkpt lat="42.796972" lon="-0.588180">
        <ele>1760.2</ele>
        <time>2019-08-06T12:18:34Z</time>
      </trkpt>
      <trkpt lat="42.797018" lon="-0.588446">
        <ele>1758.5</ele>
        <time>2019-08-06T12:18:48Z</time>
      </trkpt>
      <trkpt lat="42.797101" lon="-0.588581">
        <ele>1756.7</ele>
        <time>2019-08-06T12:19:54Z</time>
      </trkpt>
      <trkpt lat="42.797072" lon="-0.588852">
        <ele>1755.9</ele>
        <time>2019-08-06T12:20:38Z</time>
      </trkpt>
      <trkpt lat="42.796993" lon="-0.589078">
        <ele>1755.6</ele>
        <time>2019-08-06T12:20:52Z</time>
      </trkpt>
      <trkpt lat="42.797047" lon="-0.589236">
        <ele>1754.4</ele>
        <time>2019-08-06T12:21:14Z</time>
      </trkpt>
      <trkpt lat="42.797035" lon="-0.589541">
        <ele>1753.1</ele>
        <time>2019-08-06T12:21:29Z</time>
      </trkpt>
      <trkpt lat="42.796894" lon="-0.589761">
        <ele>1752.4</ele>
        <time>2019-08-06T12:21:57Z</time>
      </trkpt>
      <trkpt lat="42.796757" lon="-0.589964">
        <ele>1751.2</ele>
        <time>2019-08-06T12:22:11Z</time>
      </trkpt>
      <trkpt lat="42.796699" lon="-0.590247">
        <ele>1751.0</ele>
        <time>2019-08-06T12:22:28Z</time>
      </trkpt>
      <trkpt lat="42.796691" lon="-0.590462">
        <ele>1751.0</ele>
        <time>2019-08-06T12:22:44Z</time>
      </trkpt>
      <trkpt lat="42.796551" lon="-0.590618">
        <ele>1753.9</ele>
        <time>2019-08-06T12:23:10Z</time>
      </trkpt>
      <trkpt lat="42.796463" lon="-0.590703">
        <ele>1756.1</ele>
        <time>2019-08-06T12:23:27Z</time>
      </trkpt>
      <trkpt lat="42.796442" lon="-0.590844">
        <ele>1756.3</ele>
        <time>2019-08-06T12:23:40Z</time>
      </trkpt>
      <trkpt lat="42.796431" lon="-0.591021">
        <ele>1756.0</ele>
        <time>2019-08-06T12:24:02Z</time>
      </trkpt>
      <trkpt lat="42.796437" lon="-0.591225">
        <ele>1755.2</ele>
        <time>2019-08-06T12:24:23Z</time>
      </trkpt>
      <trkpt lat="42.796276" lon="-0.591360">
        <ele>1757.4</ele>
        <time>2019-08-06T12:24:41Z</time>
      </trkpt>
      <trkpt lat="42.796219" lon="-0.591515">
        <ele>1757.3</ele>
        <time>2019-08-06T12:25:04Z</time>
      </trkpt>
      <trkpt lat="42.796084" lon="-0.591755">
        <ele>1758.2</ele>
        <time>2019-08-06T12:27:26Z</time>
      </trkpt>
      <trkpt lat="42.795985" lon="-0.591946">
        <ele>1760.0</ele>
        <time>2019-08-06T12:27:42Z</time>
      </trkpt>
      <trkpt lat="42.795850" lon="-0.592038">
        <ele>1762.1</ele>
        <time>2019-08-06T12:28:06Z</time>
      </trkpt>
      <trkpt lat="42.795678" lon="-0.592109">
        <ele>1769.9</ele>
        <time>2019-08-06T12:28:19Z</time>
      </trkpt>
      <trkpt lat="42.795538" lon="-0.592173">
        <ele>1776.9</ele>
        <time>2019-08-06T12:28:35Z</time>
      </trkpt>
      <trkpt lat="42.795423" lon="-0.592315">
        <ele>1782.9</ele>
        <time>2019-08-06T12:29:05Z</time>
      </trkpt>
      <trkpt lat="42.795309" lon="-0.592351">
        <ele>1788.5</ele>
        <time>2019-08-06T12:30:35Z</time>
      </trkpt>
      <trkpt lat="42.795139" lon="-0.592369">
        <ele>1796.7</ele>
        <time>2019-08-06T12:30:47Z</time>
      </trkpt>
      <trkpt lat="42.795065" lon="-0.592311">
        <ele>1800.0</ele>
        <time>2019-08-06T12:31:02Z</time>
      </trkpt>
      <trkpt lat="42.794881" lon="-0.592268">
        <ele>1808.1</ele>
        <time>2019-08-06T12:31:18Z</time>
      </trkpt>
      <trkpt lat="42.794786" lon="-0.592297">
        <ele>1812.3</ele>
        <time>2019-08-06T12:31:29Z</time>
      </trkpt>
      <trkpt lat="42.794723" lon="-0.592290">
        <ele>1815.1</ele>
        <time>2019-08-06T12:31:40Z</time>
      </trkpt>
      <trkpt lat="42.794576" lon="-0.592311">
        <ele>1821.5</ele>
        <time>2019-08-06T12:31:51Z</time>
      </trkpt>
      <trkpt lat="42.794381" lon="-0.592211">
        <ele>1830.4</ele>
        <time>2019-08-06T12:32:24Z</time>
      </trkpt>
      <trkpt lat="42.794229" lon="-0.592318">
        <ele>1836.6</ele>
        <time>2019-08-06T12:32:45Z</time>
      </trkpt>
      <trkpt lat="42.794059" lon="-0.592467">
        <ele>1839.9</ele>
        <time>2019-08-06T12:37:59Z</time>
      </trkpt>
      <trkpt lat="42.793965" lon="-0.592514">
        <ele>1841.0</ele>
        <time>2019-08-06T12:38:10Z</time>
      </trkpt>
      <trkpt lat="42.793819" lon="-0.592486">
        <ele>1843.6</ele>
        <time>2019-08-06T12:38:22Z</time>
      </trkpt>
      <trkpt lat="42.793634" lon="-0.592585">
        <ele>1845.5</ele>
        <time>2019-08-06T12:38:34Z</time>
      </trkpt>
      <trkpt lat="42.793525" lon="-0.592713">
        <ele>1846.0</ele>
        <time>2019-08-06T12:41:10Z</time>
      </trkpt>
      <trkpt lat="42.793359" lon="-0.592835">
        <ele>1847.4</ele>
        <time>2019-08-06T12:41:32Z</time>
      </trkpt>
      <trkpt lat="42.793273" lon="-0.592934">
        <ele>1847.6</ele>
        <time>2019-08-06T12:41:41Z</time>
      </trkpt>
      <trkpt lat="42.793149" lon="-0.592712">
        <ele>1851.5</ele>
        <time>2019-08-06T12:41:51Z</time>
      </trkpt>
      <trkpt lat="42.793102" lon="-0.592087">
        <ele>1863.9</ele>
        <time>2019-08-06T12:41:59Z</time>
      </trkpt>
      <trkpt lat="42.793116" lon="-0.591709">
        <ele>1872.6</ele>
        <time>2019-08-06T12:42:01Z</time>
      </trkpt>
      <trkpt lat="42.793132" lon="-0.591360">
        <ele>1880.5</ele>
        <time>2019-08-06T12:42:02Z</time>
      </trkpt>
      <trkpt lat="42.793086" lon="-0.590954">
        <ele>1889.0</ele>
        <time>2019-08-06T12:42:04Z</time>
      </trkpt>
      <trkpt lat="42.793132" lon="-0.590587">
        <ele>1896.6</ele>
        <time>2019-08-06T12:42:05Z</time>
      </trkpt>
      <trkpt lat="42.793163" lon="-0.590268">
        <ele>1902.3</ele>
        <time>2019-08-06T12:42:07Z</time>
      </trkpt>
      <trkpt lat="42.793119" lon="-0.589813">
        <ele>1908.5</ele>
        <time>2019-08-06T12:42:08Z</time>
      </trkpt>
      <trkpt lat="42.793071" lon="-0.589470">
        <ele>1912.3</ele>
        <time>2019-08-06T12:46:30Z</time>
      </trkpt>
      <trkpt lat="42.792906" lon="-0.588936">
        <ele>1914.8</ele>
        <time>2019-08-06T12:46:39Z</time>
      </trkpt>
      <trkpt lat="42.792803" lon="-0.588744">
        <ele>1914.1</ele>
        <time>2019-08-06T12:46:53Z</time>
      </trkpt>
      <trkpt lat="42.792758" lon="-0.588603">
        <ele>1898.6</ele>
        <time>2019-08-06T12:47:15Z</time>
      </trkpt>
      <trkpt lat="42.792749" lon="-0.588579">
        <ele>1901.1</ele>
        <time>2019-08-06T12:48:20Z</time>
      </trkpt>
      <trkpt lat="42.792739" lon="-0.588450">
        <ele>1900.9</ele>
        <time>2019-08-06T12:48:28Z</time>
      </trkpt>
      <trkpt lat="42.792714" lon="-0.588319">
        <ele>1901.1</ele>
        <time>2019-08-06T12:48:36Z</time>
      </trkpt>
      <trkpt lat="42.792699" lon="-0.588209">
        <ele>1901.4</ele>
        <time>2019-08-06T12:48:43Z</time>
      </trkpt>
      <trkpt lat="42.792682" lon="-0.588089">
        <ele>1901.0</ele>
        <time>2019-08-06T12:48:50Z</time>
      </trkpt>
      <trkpt lat="42.792680" lon="-0.587972">
        <ele>1901.4</ele>
        <time>2019-08-06T12:48:57Z</time>
      </trkpt>
      <trkpt lat="42.792656" lon="-0.587859">
        <ele>1903.2</ele>
        <time>2019-08-06T12:49:04Z</time>
      </trkpt>
      <trkpt lat="42.792664" lon="-0.587729">
        <ele>1904.5</ele>
        <time>2019-08-06T12:49:11Z</time>
      </trkpt>
      <trkpt lat="42.792615" lon="-0.587622">
        <ele>1906.0</ele>
        <time>2019-08-06T12:49:19Z</time>
      </trkpt>
      <trkpt lat="42.792581" lon="-0.587513">
        <ele>1908.0</ele>
        <time>2019-08-06T12:49:27Z</time>
      </trkpt>
      <trkpt lat="42.792521" lon="-0.587425">
        <ele>1909.3</ele>
        <time>2019-08-06T12:49:35Z</time>
      </trkpt>
      <trkpt lat="42.792458" lon="-0.587324">
        <ele>1910.9</ele>
        <time>2019-08-06T12:49:43Z</time>
      </trkpt>
      <trkpt lat="42.792378" lon="-0.587276">
        <ele>1912.5</ele>
        <time>2019-08-06T12:49:51Z</time>
      </trkpt>
      <trkpt lat="42.792306" lon="-0.587198">
        <ele>1913.3</ele>
        <time>2019-08-06T12:49:59Z</time>
      </trkpt>
      <trkpt lat="42.792256" lon="-0.587101">
        <ele>1913.0</ele>
        <time>2019-08-06T12:50:06Z</time>
      </trkpt>
      <trkpt lat="42.792180" lon="-0.587012">
        <ele>1912.7</ele>
        <time>2019-08-06T12:50:14Z</time>
      </trkpt>
      <trkpt lat="42.792106" lon="-0.586942">
        <ele>1912.2</ele>
        <time>2019-08-06T12:50:21Z</time>
      </trkpt>
      <trkpt lat="42.792026" lon="-0.586883">
        <ele>1911.7</ele>
        <time>2019-08-06T12:50:28Z</time>
      </trkpt>
      <trkpt lat="42.791945" lon="-0.586819">
        <ele>1911.8</ele>
        <time>2019-08-06T12:50:36Z</time>
      </trkpt>
      <trkpt lat="42.791862" lon="-0.586758">
        <ele>1912.5</ele>
        <time>2019-08-06T12:50:43Z</time>
      </trkpt>
      <trkpt lat="42.791775" lon="-0.586677">
        <ele>1914.1</ele>
        <time>2019-08-06T12:50:54Z</time>
      </trkpt>
      <trkpt lat="42.791700" lon="-0.586583">
        <ele>1915.2</ele>
        <time>2019-08-06T12:51:04Z</time>
      </trkpt>
      <trkpt lat="42.791634" lon="-0.586547">
        <ele>1918.4</ele>
        <time>2019-08-06T12:52:29Z</time>
      </trkpt>
      <trkpt lat="42.791546" lon="-0.586507">
        <ele>1919.4</ele>
        <time>2019-08-06T12:52:39Z</time>
      </trkpt>
      <trkpt lat="42.791467" lon="-0.586423">
        <ele>1920.8</ele>
        <time>2019-08-06T12:52:49Z</time>
      </trkpt>
      <trkpt lat="42.791361" lon="-0.586408">
        <ele>1922.5</ele>
        <time>2019-08-06T12:52:58Z</time>
      </trkpt>
      <trkpt lat="42.791247" lon="-0.586417">
        <ele>1926.0</ele>
        <time>2019-08-06T12:53:11Z</time>
      </trkpt>
      <trkpt lat="42.791158" lon="-0.586456">
        <ele>1929.7</ele>
        <time>2019-08-06T12:53:23Z</time>
      </trkpt>
      <trkpt lat="42.791153" lon="-0.586492">
        <ele>1931.9</ele>
        <time>2019-08-06T12:53:34Z</time>
      </trkpt>
      <trkpt lat="42.791141" lon="-0.586528">
        <ele>1934.1</ele>
        <time>2019-08-06T12:53:45Z</time>
      </trkpt>
      <trkpt lat="42.791142" lon="-0.586610">
        <ele>1936.9</ele>
        <time>2019-08-06T12:53:58Z</time>
      </trkpt>
      <trkpt lat="42.791166" lon="-0.586671">
        <ele>1939.7</ele>
        <time>2019-08-06T12:54:08Z</time>
      </trkpt>
      <trkpt lat="42.791065" lon="-0.586688">
        <ele>1942.5</ele>
        <time>2019-08-06T12:54:18Z</time>
      </trkpt>
      <trkpt lat="42.790998" lon="-0.586642">
        <ele>1945.1</ele>
        <time>2019-08-06T12:54:32Z</time>
      </trkpt>
      <trkpt lat="42.790912" lon="-0.586607">
        <ele>1947.7</ele>
        <time>2019-08-06T12:54:43Z</time>
      </trkpt>
      <trkpt lat="42.790829" lon="-0.586636">
        <ele>1949.9</ele>
        <time>2019-08-06T12:54:58Z</time>
      </trkpt>
      <trkpt lat="42.790777" lon="-0.586591">
        <ele>1952.4</ele>
        <time>2019-08-06T12:55:14Z</time>
      </trkpt>
      <trkpt lat="42.790701" lon="-0.586563">
        <ele>1953.6</ele>
        <time>2019-08-06T12:55:25Z</time>
      </trkpt>
      <trkpt lat="42.790617" lon="-0.586548">
        <ele>1956.1</ele>
        <time>2019-08-06T12:55:36Z</time>
      </trkpt>
      <trkpt lat="42.790520" lon="-0.586543">
        <ele>1958.0</ele>
        <time>2019-08-06T12:55:45Z</time>
      </trkpt>
      <trkpt lat="42.790507" lon="-0.586622">
        <ele>1960.8</ele>
        <time>2019-08-06T12:55:57Z</time>
      </trkpt>
      <trkpt lat="42.790491" lon="-0.586698">
        <ele>1962.9</ele>
        <time>2019-08-06T12:56:08Z</time>
      </trkpt>
      <trkpt lat="42.790544" lon="-0.586777">
        <ele>1965.9</ele>
        <time>2019-08-06T12:56:19Z</time>
      </trkpt>
      <trkpt lat="42.790520" lon="-0.586863">
        <ele>1969.1</ele>
        <time>2019-08-06T12:56:32Z</time>
      </trkpt>
      <trkpt lat="42.790587" lon="-0.586945">
        <ele>1970.9</ele>
        <time>2019-08-06T12:56:41Z</time>
      </trkpt>
      <trkpt lat="42.790616" lon="-0.587059">
        <ele>1972.9</ele>
        <time>2019-08-06T12:56:50Z</time>
      </trkpt>
      <trkpt lat="42.790667" lon="-0.587151">
        <ele>1974.8</ele>
        <time>2019-08-06T12:57:00Z</time>
      </trkpt>
      <trkpt lat="42.790753" lon="-0.587216">
        <ele>1976.4</ele>
        <time>2019-08-06T12:57:10Z</time>
      </trkpt>
      <trkpt lat="42.790841" lon="-0.587273">
        <ele>1978.6</ele>
        <time>2019-08-06T12:57:20Z</time>
      </trkpt>
      <trkpt lat="42.790912" lon="-0.587345">
        <ele>1981.4</ele>
        <time>2019-08-06T12:57:33Z</time>
      </trkpt>
      <trkpt lat="42.790935" lon="-0.587448">
        <ele>1983.4</ele>
        <time>2019-08-06T12:57:43Z</time>
      </trkpt>
      <trkpt lat="42.790877" lon="-0.587555">
        <ele>1984.1</ele>
        <time>2019-08-06T12:57:54Z</time>
      </trkpt>
      <trkpt lat="42.790794" lon="-0.587619">
        <ele>1986.0</ele>
        <time>2019-08-06T12:58:02Z</time>
      </trkpt>
      <trkpt lat="42.790721" lon="-0.587630">
        <ele>1989.3</ele>
        <time>2019-08-06T12:58:10Z</time>
      </trkpt>
      <trkpt lat="42.790726" lon="-0.587495">
        <ele>1991.4</ele>
        <time>2019-08-06T12:58:20Z</time>
      </trkpt>
      <trkpt lat="42.790651" lon="-0.587510">
        <ele>1993.2</ele>
        <time>2019-08-06T12:58:29Z</time>
      </trkpt>
      <trkpt lat="42.790558" lon="-0.587485">
        <ele>1995.6</ele>
        <time>2019-08-06T12:58:37Z</time>
      </trkpt>
      <trkpt lat="42.790515" lon="-0.587559">
        <ele>1998.0</ele>
        <time>2019-08-06T12:58:46Z</time>
      </trkpt>
      <trkpt lat="42.790512" lon="-0.587672">
        <ele>2000.0</ele>
        <time>2019-08-06T12:58:55Z</time>
      </trkpt>
      <trkpt lat="42.790468" lon="-0.587777">
        <ele>2002.4</ele>
        <time>2019-08-06T12:59:04Z</time>
      </trkpt>
      <trkpt lat="42.790424" lon="-0.587892">
        <ele>2004.7</ele>
        <time>2019-08-06T12:59:13Z</time>
      </trkpt>
      <trkpt lat="42.790345" lon="-0.587984">
        <ele>2007.5</ele>
        <time>2019-08-06T12:59:25Z</time>
      </trkpt>
      <trkpt lat="42.790279" lon="-0.588058">
        <ele>2009.8</ele>
        <time>2019-08-06T12:59:33Z</time>
      </trkpt>
      <trkpt lat="42.790191" lon="-0.588143">
        <ele>2012.7</ele>
        <time>2019-08-06T12:59:42Z</time>
      </trkpt>
      <trkpt lat="42.790135" lon="-0.588243">
        <ele>2016.4</ele>
        <time>2019-08-06T12:59:53Z</time>
      </trkpt>
      <trkpt lat="42.790066" lon="-0.588334">
        <ele>2020.2</ele>
        <time>2019-08-06T13:00:05Z</time>
      </trkpt>
      <trkpt lat="42.789985" lon="-0.588407">
        <ele>2022.2</ele>
        <time>2019-08-06T13:00:16Z</time>
      </trkpt>
      <trkpt lat="42.789892" lon="-0.588484">
        <ele>2023.1</ele>
        <time>2019-08-06T13:00:28Z</time>
      </trkpt>
      <trkpt lat="42.789802" lon="-0.588552">
        <ele>2022.1</ele>
        <time>2019-08-06T13:00:39Z</time>
      </trkpt>
      <trkpt lat="42.789754" lon="-0.588617">
        <ele>2020.7</ele>
        <time>2019-08-06T13:00:53Z</time>
      </trkpt>
      <trkpt lat="42.789701" lon="-0.588729">
        <ele>2019.6</ele>
        <time>2019-08-06T13:01:07Z</time>
      </trkpt>
      <trkpt lat="42.789668" lon="-0.588823">
        <ele>2019.5</ele>
        <time>2019-08-06T13:01:40Z</time>
      </trkpt>
      <trkpt lat="42.789597" lon="-0.588855">
        <ele>2020.0</ele>
        <time>2019-08-06T13:02:04Z</time>
      </trkpt>
      <trkpt lat="42.789531" lon="-0.588947">
        <ele>2018.8</ele>
        <time>2019-08-06T13:02:27Z</time>
      </trkpt>
      <trkpt lat="42.789469" lon="-0.589034">
        <ele>2018.9</ele>
        <time>2019-08-06T13:02:34Z</time>
      </trkpt>
      <trkpt lat="42.789396" lon="-0.589131">
        <ele>2018.8</ele>
        <time>2019-08-06T13:02:42Z</time>
      </trkpt>
      <trkpt lat="42.789325" lon="-0.589246">
        <ele>2019.2</ele>
        <time>2019-08-06T13:02:52Z</time>
      </trkpt>
      <trkpt lat="42.789245" lon="-0.589312">
        <ele>2018.9</ele>
        <time>2019-08-06T13:03:00Z</time>
      </trkpt>
      <trkpt lat="42.789171" lon="-0.589411">
        <ele>2018.8</ele>
        <time>2019-08-06T13:03:08Z</time>
      </trkpt>
      <trkpt lat="42.789112" lon="-0.589509">
        <ele>2018.8</ele>
        <time>2019-08-06T13:03:15Z</time>
      </trkpt>
      <trkpt lat="42.789048" lon="-0.589608">
        <ele>2019.1</ele>
        <time>2019-08-06T13:03:23Z</time>
      </trkpt>
      <trkpt lat="42.788985" lon="-0.589725">
        <ele>2019.2</ele>
        <time>2019-08-06T13:03:32Z</time>
      </trkpt>
      <trkpt lat="42.788914" lon="-0.589836">
        <ele>2018.8</ele>
        <time>2019-08-06T13:03:40Z</time>
      </trkpt>
      <trkpt lat="42.788820" lon="-0.589919">
        <ele>2019.0</ele>
        <time>2019-08-06T13:03:48Z</time>
      </trkpt>
      <trkpt lat="42.788748" lon="-0.590013">
        <ele>2019.3</ele>
        <time>2019-08-06T13:03:56Z</time>
      </trkpt>
      <trkpt lat="42.788690" lon="-0.590117">
        <ele>2019.3</ele>
        <time>2019-08-06T13:04:03Z</time>
      </trkpt>
      <trkpt lat="42.788614" lon="-0.590223">
        <ele>2019.4</ele>
        <time>2019-08-06T13:04:11Z</time>
      </trkpt>
      <trkpt lat="42.788545" lon="-0.590318">
        <ele>2019.3</ele>
        <time>2019-08-06T13:04:18Z</time>
      </trkpt>
      <trkpt lat="42.788469" lon="-0.590403">
        <ele>2019.3</ele>
        <time>2019-08-06T13:04:25Z</time>
      </trkpt>
      <trkpt lat="42.788390" lon="-0.590491">
        <ele>2019.3</ele>
        <time>2019-08-06T13:04:32Z</time>
      </trkpt>
      <trkpt lat="42.788326" lon="-0.590583">
        <ele>2019.3</ele>
        <time>2019-08-06T13:04:38Z</time>
      </trkpt>
      <trkpt lat="42.788243" lon="-0.590657">
        <ele>2019.6</ele>
        <time>2019-08-06T13:04:45Z</time>
      </trkpt>
      <trkpt lat="42.788163" lon="-0.590738">
        <ele>2019.7</ele>
        <time>2019-08-06T13:04:52Z</time>
      </trkpt>
      <trkpt lat="42.788099" lon="-0.590823">
        <ele>2019.8</ele>
        <time>2019-08-06T13:04:59Z</time>
      </trkpt>
      <trkpt lat="42.788020" lon="-0.590904">
        <ele>2020.2</ele>
        <time>2019-08-06T13:05:06Z</time>
      </trkpt>
      <trkpt lat="42.787944" lon="-0.590995">
        <ele>2020.1</ele>
        <time>2019-08-06T13:05:13Z</time>
      </trkpt>
      <trkpt lat="42.787873" lon="-0.591077">
        <ele>2020.1</ele>
        <time>2019-08-06T13:05:20Z</time>
      </trkpt>
      <trkpt lat="42.787812" lon="-0.591158">
        <ele>2020.3</ele>
        <time>2019-08-06T13:05:27Z</time>
      </trkpt>
      <trkpt lat="42.787745" lon="-0.591240">
        <ele>2020.5</ele>
        <time>2019-08-06T13:05:33Z</time>
      </trkpt>
      <trkpt lat="42.787683" lon="-0.591333">
        <ele>2020.7</ele>
        <time>2019-08-06T13:05:39Z</time>
      </trkpt>
      <trkpt lat="42.787612" lon="-0.591419">
        <ele>2021.0</ele>
        <time>2019-08-06T13:05:46Z</time>
      </trkpt>
      <trkpt lat="42.787551" lon="-0.591501">
        <ele>2021.3</ele>
        <time>2019-08-06T13:05:52Z</time>
      </trkpt>
      <trkpt lat="42.787463" lon="-0.591591">
        <ele>2021.6</ele>
        <time>2019-08-06T13:05:59Z</time>
      </trkpt>
      <trkpt lat="42.787389" lon="-0.591670">
        <ele>2021.5</ele>
        <time>2019-08-06T13:06:06Z</time>
      </trkpt>
      <trkpt lat="42.787319" lon="-0.591773">
        <ele>2021.9</ele>
        <time>2019-08-06T13:06:13Z</time>
      </trkpt>
      <trkpt lat="42.787258" lon="-0.591875">
        <ele>2022.2</ele>
        <time>2019-08-06T13:06:20Z</time>
      </trkpt>
      <trkpt lat="42.787198" lon="-0.591982">
        <ele>2022.2</ele>
        <time>2019-08-06T13:06:28Z</time>
      </trkpt>
      <trkpt lat="42.787134" lon="-0.592057">
        <ele>2022.3</ele>
        <time>2019-08-06T13:06:36Z</time>
      </trkpt>
      <trkpt lat="42.787072" lon="-0.592149">
        <ele>2022.3</ele>
        <time>2019-08-06T13:06:44Z</time>
      </trkpt>
      <trkpt lat="42.786991" lon="-0.592224">
        <ele>2022.2</ele>
        <time>2019-08-06T13:06:52Z</time>
      </trkpt>
      <trkpt lat="42.786924" lon="-0.592301">
        <ele>2022.4</ele>
        <time>2019-08-06T13:06:59Z</time>
      </trkpt>
      <trkpt lat="42.786835" lon="-0.592373">
        <ele>2022.6</ele>
        <time>2019-08-06T13:07:07Z</time>
      </trkpt>
      <trkpt lat="42.786750" lon="-0.592451">
        <ele>2022.8</ele>
        <time>2019-08-06T13:07:18Z</time>
      </trkpt>
      <trkpt lat="42.786675" lon="-0.592511">
        <ele>2023.1</ele>
        <time>2019-08-06T13:07:25Z</time>
      </trkpt>
      <trkpt lat="42.786594" lon="-0.592586">
        <ele>2023.2</ele>
        <time>2019-08-06T13:07:32Z</time>
      </trkpt>
      <trkpt lat="42.786527" lon="-0.592693">
        <ele>2023.3</ele>
        <time>2019-08-06T13:07:39Z</time>
      </trkpt>
      <trkpt lat="42.786435" lon="-0.592768">
        <ele>2023.6</ele>
        <time>2019-08-06T13:07:47Z</time>
      </trkpt>
      <trkpt lat="42.786349" lon="-0.592814">
        <ele>2023.9</ele>
        <time>2019-08-06T13:07:54Z</time>
      </trkpt>
      <trkpt lat="42.786274" lon="-0.592887">
        <ele>2024.2</ele>
        <time>2019-08-06T13:08:01Z</time>
      </trkpt>
      <trkpt lat="42.786202" lon="-0.592972">
        <ele>2024.6</ele>
        <time>2019-08-06T13:08:08Z</time>
      </trkpt>
      <trkpt lat="42.786118" lon="-0.593052">
        <ele>2024.7</ele>
        <time>2019-08-06T13:08:15Z</time>
      </trkpt>
      <trkpt lat="42.786047" lon="-0.593138">
        <ele>2025.0</ele>
        <time>2019-08-06T13:08:22Z</time>
      </trkpt>
      <trkpt lat="42.785977" lon="-0.593217">
        <ele>2025.2</ele>
        <time>2019-08-06T13:08:29Z</time>
      </trkpt>
      <trkpt lat="42.785910" lon="-0.593300">
        <ele>2025.5</ele>
        <time>2019-08-06T13:08:35Z</time>
      </trkpt>
      <trkpt lat="42.785844" lon="-0.593405">
        <ele>2026.1</ele>
        <time>2019-08-06T13:08:42Z</time>
      </trkpt>
      <trkpt lat="42.785753" lon="-0.593480">
        <ele>2026.6</ele>
        <time>2019-08-06T13:08:48Z</time>
      </trkpt>
      <trkpt lat="42.785653" lon="-0.593524">
        <ele>2027.1</ele>
        <time>2019-08-06T13:08:54Z</time>
      </trkpt>
      <trkpt lat="42.785582" lon="-0.593617">
        <ele>2027.9</ele>
        <time>2019-08-06T13:09:01Z</time>
      </trkpt>
      <trkpt lat="42.785504" lon="-0.593699">
        <ele>2029.3</ele>
        <time>2019-08-06T13:09:08Z</time>
      </trkpt>
      <trkpt lat="42.785438" lon="-0.593813">
        <ele>2031.2</ele>
        <time>2019-08-06T13:09:15Z</time>
      </trkpt>
      <trkpt lat="42.785345" lon="-0.593893">
        <ele>2033.3</ele>
        <time>2019-08-06T13:09:22Z</time>
      </trkpt>
      <trkpt lat="42.785273" lon="-0.593997">
        <ele>2035.2</ele>
        <time>2019-08-06T13:09:29Z</time>
      </trkpt>
      <trkpt lat="42.785179" lon="-0.594057">
        <ele>2037.4</ele>
        <time>2019-08-06T13:09:36Z</time>
      </trkpt>
      <trkpt lat="42.785110" lon="-0.594132">
        <ele>2039.7</ele>
        <time>2019-08-06T13:09:46Z</time>
      </trkpt>
      <trkpt lat="42.785025" lon="-0.594191">
        <ele>2042.3</ele>
        <time>2019-08-06T13:10:00Z</time>
      </trkpt>
      <trkpt lat="42.784972" lon="-0.594288">
        <ele>2043.5</ele>
        <time>2019-08-06T13:10:08Z</time>
      </trkpt>
      <trkpt lat="42.784877" lon="-0.594350">
        <ele>2043.8</ele>
        <time>2019-08-06T13:10:16Z</time>
      </trkpt>
      <trkpt lat="42.784771" lon="-0.594349">
        <ele>2043.7</ele>
        <time>2019-08-06T13:10:29Z</time>
      </trkpt>
      <trkpt lat="42.784699" lon="-0.594330">
        <ele>2043.8</ele>
        <time>2019-08-06T13:10:39Z</time>
      </trkpt>
      <trkpt lat="42.784653" lon="-0.594379">
        <ele>2046.1</ele>
        <time>2019-08-06T13:10:59Z</time>
      </trkpt>
      <trkpt lat="42.784585" lon="-0.594479">
        <ele>2046.1</ele>
        <time>2019-08-06T13:11:07Z</time>
      </trkpt>
      <trkpt lat="42.784509" lon="-0.594553">
        <ele>2046.3</ele>
        <time>2019-08-06T13:11:14Z</time>
      </trkpt>
      <trkpt lat="42.784430" lon="-0.594632">
        <ele>2046.1</ele>
        <time>2019-08-06T13:11:21Z</time>
      </trkpt>
      <trkpt lat="42.784361" lon="-0.594729">
        <ele>2046.4</ele>
        <time>2019-08-06T13:11:29Z</time>
      </trkpt>
      <trkpt lat="42.784297" lon="-0.594826">
        <ele>2046.9</ele>
        <time>2019-08-06T13:11:36Z</time>
      </trkpt>
      <trkpt lat="42.784241" lon="-0.594930">
        <ele>2049.1</ele>
        <time>2019-08-06T13:11:44Z</time>
      </trkpt>
      <trkpt lat="42.784162" lon="-0.594992">
        <ele>2049.4</ele>
        <time>2019-08-06T13:11:51Z</time>
      </trkpt>
      <trkpt lat="42.784092" lon="-0.595068">
        <ele>2050.2</ele>
        <time>2019-08-06T13:11:58Z</time>
      </trkpt>
      <trkpt lat="42.784016" lon="-0.595157">
        <ele>2050.7</ele>
        <time>2019-08-06T13:12:05Z</time>
      </trkpt>
      <trkpt lat="42.783984" lon="-0.595263">
        <ele>2050.6</ele>
        <time>2019-08-06T13:12:13Z</time>
      </trkpt>
      <trkpt lat="42.783916" lon="-0.595359">
        <ele>2051.2</ele>
        <time>2019-08-06T13:12:20Z</time>
      </trkpt>
      <trkpt lat="42.783871" lon="-0.595464">
        <ele>2051.5</ele>
        <time>2019-08-06T13:12:27Z</time>
      </trkpt>
      <trkpt lat="42.783785" lon="-0.595527">
        <ele>2051.5</ele>
        <time>2019-08-06T13:12:34Z</time>
      </trkpt>
      <trkpt lat="42.783693" lon="-0.595598">
        <ele>2051.2</ele>
        <time>2019-08-06T13:12:41Z</time>
      </trkpt>
      <trkpt lat="42.783608" lon="-0.595672">
        <ele>2050.9</ele>
        <time>2019-08-06T13:12:48Z</time>
      </trkpt>
      <trkpt lat="42.783541" lon="-0.595787">
        <ele>2051.7</ele>
        <time>2019-08-06T13:12:55Z</time>
      </trkpt>
      <trkpt lat="42.783447" lon="-0.595876">
        <ele>2052.2</ele>
        <time>2019-08-06T13:13:03Z</time>
      </trkpt>
      <trkpt lat="42.783362" lon="-0.595943">
        <ele>2053.7</ele>
        <time>2019-08-06T13:13:10Z</time>
      </trkpt>
      <trkpt lat="42.783272" lon="-0.596016">
        <ele>2057.3</ele>
        <time>2019-08-06T13:13:17Z</time>
      </trkpt>
      <trkpt lat="42.783218" lon="-0.596121">
        <ele>2060.3</ele>
        <time>2019-08-06T13:13:25Z</time>
      </trkpt>
      <trkpt lat="42.783137" lon="-0.596192">
        <ele>2061.2</ele>
        <time>2019-08-06T13:13:33Z</time>
      </trkpt>
      <trkpt lat="42.783040" lon="-0.596268">
        <ele>2062.0</ele>
        <time>2019-08-06T13:13:41Z</time>
      </trkpt>
      <trkpt lat="42.782953" lon="-0.596321">
        <ele>2062.9</ele>
        <time>2019-08-06T13:13:49Z</time>
      </trkpt>
      <trkpt lat="42.782886" lon="-0.596407">
        <ele>2064.5</ele>
        <time>2019-08-06T13:13:58Z</time>
      </trkpt>
      <trkpt lat="42.782865" lon="-0.596502">
        <ele>2066.4</ele>
        <time>2019-08-06T13:14:06Z</time>
      </trkpt>
      <trkpt lat="42.782829" lon="-0.596606">
        <ele>2068.4</ele>
        <time>2019-08-06T13:14:15Z</time>
      </trkpt>
      <trkpt lat="42.782789" lon="-0.596747">
        <ele>2070.4</ele>
        <time>2019-08-06T13:14:23Z</time>
      </trkpt>
      <trkpt lat="42.782723" lon="-0.596864">
        <ele>2072.7</ele>
        <time>2019-08-06T13:14:34Z</time>
      </trkpt>
      <trkpt lat="42.782653" lon="-0.596949">
        <ele>2074.4</ele>
        <time>2019-08-06T13:14:44Z</time>
      </trkpt>
      <trkpt lat="42.782571" lon="-0.597009">
        <ele>2077.2</ele>
        <time>2019-08-06T13:14:53Z</time>
      </trkpt>
      <trkpt lat="42.782518" lon="-0.597120">
        <ele>2079.3</ele>
        <time>2019-08-06T13:15:04Z</time>
      </trkpt>
      <trkpt lat="42.782443" lon="-0.597216">
        <ele>2082.5</ele>
        <time>2019-08-06T13:15:16Z</time>
      </trkpt>
      <trkpt lat="42.782386" lon="-0.597311">
        <ele>2084.5</ele>
        <time>2019-08-06T13:15:26Z</time>
      </trkpt>
      <trkpt lat="42.782313" lon="-0.597396">
        <ele>2085.6</ele>
        <time>2019-08-06T13:15:34Z</time>
      </trkpt>
      <trkpt lat="42.782249" lon="-0.597498">
        <ele>2086.9</ele>
        <time>2019-08-06T13:15:43Z</time>
      </trkpt>
      <trkpt lat="42.782169" lon="-0.597578">
        <ele>2087.2</ele>
        <time>2019-08-06T13:15:52Z</time>
      </trkpt>
      <trkpt lat="42.782097" lon="-0.597645">
        <ele>2087.6</ele>
        <time>2019-08-06T13:16:01Z</time>
      </trkpt>
      <trkpt lat="42.782030" lon="-0.597741">
        <ele>2089.6</ele>
        <time>2019-08-06T13:16:14Z</time>
      </trkpt>
      <trkpt lat="42.782000" lon="-0.597876">
        <ele>2091.0</ele>
        <time>2019-08-06T13:16:21Z</time>
      </trkpt>
      <trkpt lat="42.782008" lon="-0.598014">
        <ele>2092.7</ele>
        <time>2019-08-06T13:16:30Z</time>
      </trkpt>
      <trkpt lat="42.781971" lon="-0.598133">
        <ele>2094.0</ele>
        <time>2019-08-06T13:16:38Z</time>
      </trkpt>
      <trkpt lat="42.781931" lon="-0.598260">
        <ele>2096.0</ele>
        <time>2019-08-06T13:16:48Z</time>
      </trkpt>
      <trkpt lat="42.781901" lon="-0.598402">
        <ele>2098.2</ele>
        <time>2019-08-06T13:16:56Z</time>
      </trkpt>
      <trkpt lat="42.781876" lon="-0.598507">
        <ele>2100.4</ele>
        <time>2019-08-06T13:17:04Z</time>
      </trkpt>
      <trkpt lat="42.781871" lon="-0.598620">
        <ele>2103.6</ele>
        <time>2019-08-06T13:17:14Z</time>
      </trkpt>
      <trkpt lat="42.781884" lon="-0.598730">
        <ele>2105.5</ele>
        <time>2019-08-06T13:17:23Z</time>
      </trkpt>
      <trkpt lat="42.781907" lon="-0.598820">
        <ele>2107.6</ele>
        <time>2019-08-06T13:17:31Z</time>
      </trkpt>
      <trkpt lat="42.781931" lon="-0.598947">
        <ele>2109.4</ele>
        <time>2019-08-06T13:17:42Z</time>
      </trkpt>
      <trkpt lat="42.781950" lon="-0.599063">
        <ele>2110.9</ele>
        <time>2019-08-06T13:17:50Z</time>
      </trkpt>
      <trkpt lat="42.781913" lon="-0.599183">
        <ele>2112.2</ele>
        <time>2019-08-06T13:17:58Z</time>
      </trkpt>
      <trkpt lat="42.781923" lon="-0.599310">
        <ele>2112.9</ele>
        <time>2019-08-06T13:18:05Z</time>
      </trkpt>
      <trkpt lat="42.781907" lon="-0.599446">
        <ele>2112.9</ele>
        <time>2019-08-06T13:18:12Z</time>
      </trkpt>
      <trkpt lat="42.781874" lon="-0.599577">
        <ele>2113.8</ele>
        <time>2019-08-06T13:18:20Z</time>
      </trkpt>
      <trkpt lat="42.781849" lon="-0.599692">
        <ele>2114.6</ele>
        <time>2019-08-06T13:18:36Z</time>
      </trkpt>
      <trkpt lat="42.781875" lon="-0.599796">
        <ele>2116.5</ele>
        <time>2019-08-06T13:21:03Z</time>
      </trkpt>
      <trkpt lat="42.781894" lon="-0.599930">
        <ele>2116.1</ele>
        <time>2019-08-06T13:21:12Z</time>
      </trkpt>
      <trkpt lat="42.781911" lon="-0.600073">
        <ele>2116.2</ele>
        <time>2019-08-06T13:21:21Z</time>
      </trkpt>
      <trkpt lat="42.781960" lon="-0.600193">
        <ele>2113.9</ele>
        <time>2019-08-06T13:21:30Z</time>
      </trkpt>
      <trkpt lat="42.782006" lon="-0.600308">
        <ele>2113.1</ele>
        <time>2019-08-06T13:21:39Z</time>
      </trkpt>
      <trkpt lat="42.782061" lon="-0.600409">
        <ele>2113.7</ele>
        <time>2019-08-06T13:21:47Z</time>
      </trkpt>
      <trkpt lat="42.782120" lon="-0.600515">
        <ele>2113.8</ele>
        <time>2019-08-06T13:21:56Z</time>
      </trkpt>
      <trkpt lat="42.782193" lon="-0.600590">
        <ele>2113.7</ele>
        <time>2019-08-06T13:22:08Z</time>
      </trkpt>
      <trkpt lat="42.782268" lon="-0.600682">
        <ele>2113.7</ele>
        <time>2019-08-06T13:22:17Z</time>
      </trkpt>
      <trkpt lat="42.782342" lon="-0.600775">
        <ele>2113.1</ele>
        <time>2019-08-06T13:22:26Z</time>
      </trkpt>
      <trkpt lat="42.782404" lon="-0.600883">
        <ele>2113.9</ele>
        <time>2019-08-06T13:22:35Z</time>
      </trkpt>
      <trkpt lat="42.782472" lon="-0.600961">
        <ele>2114.0</ele>
        <time>2019-08-06T13:22:43Z</time>
      </trkpt>
      <trkpt lat="42.782503" lon="-0.601080">
        <ele>2111.7</ele>
        <time>2019-08-06T13:22:53Z</time>
      </trkpt>
      <trkpt lat="42.782521" lon="-0.601198">
        <ele>2111.3</ele>
        <time>2019-08-06T13:23:02Z</time>
      </trkpt>
      <trkpt lat="42.782543" lon="-0.601316">
        <ele>2108.9</ele>
        <time>2019-08-06T13:23:12Z</time>
      </trkpt>
      <trkpt lat="42.782534" lon="-0.601428">
        <ele>2105.4</ele>
        <time>2019-08-06T13:23:26Z</time>
      </trkpt>
      <trkpt lat="42.782507" lon="-0.601560">
        <ele>2103.7</ele>
        <time>2019-08-06T13:23:38Z</time>
      </trkpt>
      <trkpt lat="42.782474" lon="-0.601695">
        <ele>2101.9</ele>
        <time>2019-08-06T13:23:50Z</time>
      </trkpt>
      <trkpt lat="42.782514" lon="-0.601813">
        <ele>2101.5</ele>
        <time>2019-08-06T13:24:03Z</time>
      </trkpt>
      <trkpt lat="42.782603" lon="-0.601833">
        <ele>2102.3</ele>
        <time>2019-08-06T13:24:11Z</time>
      </trkpt>
      <trkpt lat="42.782718" lon="-0.601848">
        <ele>2103.1</ele>
        <time>2019-08-06T13:24:21Z</time>
      </trkpt>
      <trkpt lat="42.782802" lon="-0.601922">
        <ele>2101.5</ele>
        <time>2019-08-06T13:24:31Z</time>
      </trkpt>
      <trkpt lat="42.782854" lon="-0.602017">
        <ele>2100.4</ele>
        <time>2019-08-06T13:24:41Z</time>
      </trkpt>
      <trkpt lat="42.782857" lon="-0.602145">
        <ele>2099.1</ele>
        <time>2019-08-06T13:24:50Z</time>
      </trkpt>
      <trkpt lat="42.782837" lon="-0.602269">
        <ele>2098.2</ele>
        <time>2019-08-06T13:24:59Z</time>
      </trkpt>
      <trkpt lat="42.782832" lon="-0.602398">
        <ele>2097.5</ele>
        <time>2019-08-06T13:25:07Z</time>
      </trkpt>
      <trkpt lat="42.782845" lon="-0.602522">
        <ele>2098.2</ele>
        <time>2019-08-06T13:25:15Z</time>
      </trkpt>
      <trkpt lat="42.782886" lon="-0.602620">
        <ele>2098.8</ele>
        <time>2019-08-06T13:25:24Z</time>
      </trkpt>
      <trkpt lat="42.782971" lon="-0.602715">
        <ele>2097.6</ele>
        <time>2019-08-06T13:25:33Z</time>
      </trkpt>
      <trkpt lat="42.783015" lon="-0.602826">
        <ele>2096.1</ele>
        <time>2019-08-06T13:25:43Z</time>
      </trkpt>
      <trkpt lat="42.783024" lon="-0.602968">
        <ele>2095.3</ele>
        <time>2019-08-06T13:25:53Z</time>
      </trkpt>
      <trkpt lat="42.783051" lon="-0.603116">
        <ele>2095.5</ele>
        <time>2019-08-06T13:26:02Z</time>
      </trkpt>
      <trkpt lat="42.783083" lon="-0.603244">
        <ele>2094.6</ele>
        <time>2019-08-06T13:26:12Z</time>
      </trkpt>
      <trkpt lat="42.783100" lon="-0.603364">
        <ele>2092.3</ele>
        <time>2019-08-06T13:26:22Z</time>
      </trkpt>
      <trkpt lat="42.783103" lon="-0.603484">
        <ele>2088.9</ele>
        <time>2019-08-06T13:26:38Z</time>
      </trkpt>
      <trkpt lat="42.783074" lon="-0.603611">
        <ele>2086.9</ele>
        <time>2019-08-06T13:26:52Z</time>
      </trkpt>
      <trkpt lat="42.783069" lon="-0.603752">
        <ele>2085.2</ele>
        <time>2019-08-06T13:27:05Z</time>
      </trkpt>
      <trkpt lat="42.783110" lon="-0.603857">
        <ele>2083.7</ele>
        <time>2019-08-06T13:27:17Z</time>
      </trkpt>
      <trkpt lat="42.783109" lon="-0.603977">
        <ele>2081.8</ele>
        <time>2019-08-06T13:27:27Z</time>
      </trkpt>
      <trkpt lat="42.783083" lon="-0.604127">
        <ele>2079.9</ele>
        <time>2019-08-06T13:27:39Z</time>
      </trkpt>
      <trkpt lat="42.783108" lon="-0.604251">
        <ele>2077.3</ele>
        <time>2019-08-06T13:27:50Z</time>
      </trkpt>
      <trkpt lat="42.783134" lon="-0.604370">
        <ele>2076.7</ele>
        <time>2019-08-06T13:28:11Z</time>
      </trkpt>
      <trkpt lat="42.783182" lon="-0.604439">
        <ele>2074.7</ele>
        <time>2019-08-06T13:29:55Z</time>
      </trkpt>
      <trkpt lat="42.783169" lon="-0.604575">
        <ele>2074.7</ele>
        <time>2019-08-06T13:30:05Z</time>
      </trkpt>
      <trkpt lat="42.783185" lon="-0.604696">
        <ele>2074.5</ele>
        <time>2019-08-06T13:30:14Z</time>
      </trkpt>
      <trkpt lat="42.783180" lon="-0.604828">
        <ele>2074.1</ele>
        <time>2019-08-06T13:30:22Z</time>
      </trkpt>
      <trkpt lat="42.783197" lon="-0.604955">
        <ele>2073.8</ele>
        <time>2019-08-06T13:30:31Z</time>
      </trkpt>
      <trkpt lat="42.783231" lon="-0.605071">
        <ele>2073.9</ele>
        <time>2019-08-06T13:30:40Z</time>
      </trkpt>
      <trkpt lat="42.783276" lon="-0.605173">
        <ele>2074.1</ele>
        <time>2019-08-06T13:30:48Z</time>
      </trkpt>
      <trkpt lat="42.783335" lon="-0.605273">
        <ele>2074.6</ele>
        <time>2019-08-06T13:30:56Z</time>
      </trkpt>
      <trkpt lat="42.783399" lon="-0.605375">
        <ele>2075.7</ele>
        <time>2019-08-06T13:31:04Z</time>
      </trkpt>
      <trkpt lat="42.783455" lon="-0.605486">
        <ele>2077.2</ele>
        <time>2019-08-06T13:31:12Z</time>
      </trkpt>
      <trkpt lat="42.783515" lon="-0.605586">
        <ele>2078.0</ele>
        <time>2019-08-06T13:31:21Z</time>
      </trkpt>
      <trkpt lat="42.783549" lon="-0.605709">
        <ele>2078.4</ele>
        <time>2019-08-06T13:31:30Z</time>
      </trkpt>
      <trkpt lat="42.783558" lon="-0.605837">
        <ele>2078.2</ele>
        <time>2019-08-06T13:31:43Z</time>
      </trkpt>
      <trkpt lat="42.783589" lon="-0.605952">
        <ele>2077.8</ele>
        <time>2019-08-06T13:31:51Z</time>
      </trkpt>
      <trkpt lat="42.783629" lon="-0.606061">
        <ele>2077.1</ele>
        <time>2019-08-06T13:32:00Z</time>
      </trkpt>
      <trkpt lat="42.783656" lon="-0.606142">
        <ele>2076.6</ele>
        <time>2019-08-06T13:32:17Z</time>
      </trkpt>
      <trkpt lat="42.783704" lon="-0.606219">
        <ele>2075.2</ele>
        <time>2019-08-06T13:32:38Z</time>
      </trkpt>
      <trkpt lat="42.783737" lon="-0.606328">
        <ele>2074.4</ele>
        <time>2019-08-06T13:32:47Z</time>
      </trkpt>
      <trkpt lat="42.783755" lon="-0.606452">
        <ele>2073.1</ele>
        <time>2019-08-06T13:32:57Z</time>
      </trkpt>
      <trkpt lat="42.783751" lon="-0.606580">
        <ele>2072.0</ele>
        <time>2019-08-06T13:33:09Z</time>
      </trkpt>
      <trkpt lat="42.783780" lon="-0.606698">
        <ele>2070.0</ele>
        <time>2019-08-06T13:33:22Z</time>
      </trkpt>
      <trkpt lat="42.783820" lon="-0.606796">
        <ele>2068.4</ele>
        <time>2019-08-06T13:33:37Z</time>
      </trkpt>
      <trkpt lat="42.783855" lon="-0.606910">
        <ele>2066.5</ele>
        <time>2019-08-06T13:33:51Z</time>
      </trkpt>
      <trkpt lat="42.783868" lon="-0.607029">
        <ele>2063.8</ele>
        <time>2019-08-06T13:34:07Z</time>
      </trkpt>
      <trkpt lat="42.783890" lon="-0.607130">
        <ele>2062.3</ele>
        <time>2019-08-06T13:34:25Z</time>
      </trkpt>
      <trkpt lat="42.783903" lon="-0.607244">
        <ele>2059.6</ele>
        <time>2019-08-06T13:34:40Z</time>
      </trkpt>
      <trkpt lat="42.783893" lon="-0.607381">
        <ele>2058.2</ele>
        <time>2019-08-06T13:34:54Z</time>
      </trkpt>
      <trkpt lat="42.783886" lon="-0.607526">
        <ele>2058.2</ele>
        <time>2019-08-06T13:35:04Z</time>
      </trkpt>
      <trkpt lat="42.783884" lon="-0.607665">
        <ele>2059.5</ele>
        <time>2019-08-06T13:35:13Z</time>
      </trkpt>
      <trkpt lat="42.783860" lon="-0.607783">
        <ele>2059.9</ele>
        <time>2019-08-06T13:35:23Z</time>
      </trkpt>
      <trkpt lat="42.783783" lon="-0.607863">
        <ele>2058.6</ele>
        <time>2019-08-06T13:35:34Z</time>
      </trkpt>
      <trkpt lat="42.783698" lon="-0.607908">
        <ele>2054.4</ele>
        <time>2019-08-06T13:35:48Z</time>
      </trkpt>
      <trkpt lat="42.783682" lon="-0.608025">
        <ele>2052.2</ele>
        <time>2019-08-06T13:36:01Z</time>
      </trkpt>
      <trkpt lat="42.783668" lon="-0.608141">
        <ele>2050.2</ele>
        <time>2019-08-06T13:36:13Z</time>
      </trkpt>
      <trkpt lat="42.783631" lon="-0.608249">
        <ele>2049.2</ele>
        <time>2019-08-06T13:36:22Z</time>
      </trkpt>
      <trkpt lat="42.783612" lon="-0.608373">
        <ele>2047.4</ele>
        <time>2019-08-06T13:36:33Z</time>
      </trkpt>
      <trkpt lat="42.783585" lon="-0.608487">
        <ele>2046.3</ele>
        <time>2019-08-06T13:36:43Z</time>
      </trkpt>
      <trkpt lat="42.783557" lon="-0.608622">
        <ele>2045.8</ele>
        <time>2019-08-06T13:36:54Z</time>
      </trkpt>
      <trkpt lat="42.783538" lon="-0.608706">
        <ele>2043.4</ele>
        <time>2019-08-06T13:37:14Z</time>
      </trkpt>
      <trkpt lat="42.783505" lon="-0.608825">
        <ele>2041.6</ele>
        <time>2019-08-06T13:37:27Z</time>
      </trkpt>
      <trkpt lat="42.783529" lon="-0.608949">
        <ele>2040.2</ele>
        <time>2019-08-06T13:37:39Z</time>
      </trkpt>
      <trkpt lat="42.783515" lon="-0.609090">
        <ele>2038.9</ele>
        <time>2019-08-06T13:37:52Z</time>
      </trkpt>
      <trkpt lat="42.783529" lon="-0.609208">
        <ele>2037.5</ele>
        <time>2019-08-06T13:38:04Z</time>
      </trkpt>
      <trkpt lat="42.783546" lon="-0.609326">
        <ele>2036.2</ele>
        <time>2019-08-06T13:38:13Z</time>
      </trkpt>
      <trkpt lat="42.783585" lon="-0.609444">
        <ele>2035.0</ele>
        <time>2019-08-06T13:38:24Z</time>
      </trkpt>
      <trkpt lat="42.783602" lon="-0.609576">
        <ele>2033.1</ele>
        <time>2019-08-06T13:38:39Z</time>
      </trkpt>
      <trkpt lat="42.783621" lon="-0.609688">
        <ele>2032.4</ele>
        <time>2019-08-06T13:38:49Z</time>
      </trkpt>
      <trkpt lat="42.783634" lon="-0.609776">
        <ele>2033.1</ele>
        <time>2019-08-06T13:39:03Z</time>
      </trkpt>
      <trkpt lat="42.783705" lon="-0.609844">
        <ele>2032.1</ele>
        <time>2019-08-06T13:39:19Z</time>
      </trkpt>
      <trkpt lat="42.783762" lon="-0.609932">
        <ele>2032.0</ele>
        <time>2019-08-06T13:39:28Z</time>
      </trkpt>
      <trkpt lat="42.783822" lon="-0.610022">
        <ele>2032.0</ele>
        <time>2019-08-06T13:39:36Z</time>
      </trkpt>
      <trkpt lat="42.783888" lon="-0.610118">
        <ele>2032.3</ele>
        <time>2019-08-06T13:39:44Z</time>
      </trkpt>
      <trkpt lat="42.783971" lon="-0.610200">
        <ele>2032.0</ele>
        <time>2019-08-06T13:39:52Z</time>
      </trkpt>
      <trkpt lat="42.784041" lon="-0.610287">
        <ele>2030.7</ele>
        <time>2019-08-06T13:40:00Z</time>
      </trkpt>
      <trkpt lat="42.784087" lon="-0.610400">
        <ele>2029.8</ele>
        <time>2019-08-06T13:40:09Z</time>
      </trkpt>
      <trkpt lat="42.784117" lon="-0.610514">
        <ele>2029.0</ele>
        <time>2019-08-06T13:40:18Z</time>
      </trkpt>
      <trkpt lat="42.784173" lon="-0.610611">
        <ele>2028.1</ele>
        <time>2019-08-06T13:40:27Z</time>
      </trkpt>
      <trkpt lat="42.784190" lon="-0.610735">
        <ele>2026.0</ele>
        <time>2019-08-06T13:40:38Z</time>
      </trkpt>
      <trkpt lat="42.784236" lon="-0.610851">
        <ele>2024.7</ele>
        <time>2019-08-06T13:40:49Z</time>
      </trkpt>
      <trkpt lat="42.784251" lon="-0.610987">
        <ele>2023.4</ele>
        <time>2019-08-06T13:40:58Z</time>
      </trkpt>
      <trkpt lat="42.784286" lon="-0.611113">
        <ele>2022.1</ele>
        <time>2019-08-06T13:41:08Z</time>
      </trkpt>
      <trkpt lat="42.784300" lon="-0.611228">
        <ele>2022.0</ele>
        <time>2019-08-06T13:41:18Z</time>
      </trkpt>
      <trkpt lat="42.784350" lon="-0.611331">
        <ele>2022.9</ele>
        <time>2019-08-06T13:41:27Z</time>
      </trkpt>
      <trkpt lat="42.784400" lon="-0.611425">
        <ele>2022.0</ele>
        <time>2019-08-06T13:41:38Z</time>
      </trkpt>
      <trkpt lat="42.784453" lon="-0.611505">
        <ele>2020.9</ele>
        <time>2019-08-06T13:41:47Z</time>
      </trkpt>
      <trkpt lat="42.784510" lon="-0.611599">
        <ele>2019.4</ele>
        <time>2019-08-06T13:41:55Z</time>
      </trkpt>
      <trkpt lat="42.784527" lon="-0.611690">
        <ele>2017.6</ele>
        <time>2019-08-06T13:42:06Z</time>
      </trkpt>
      <trkpt lat="42.784576" lon="-0.611759">
        <ele>2016.3</ele>
        <time>2019-08-06T13:42:15Z</time>
      </trkpt>
      <trkpt lat="42.784657" lon="-0.611830">
        <ele>2015.3</ele>
        <time>2019-08-06T13:42:24Z</time>
      </trkpt>
      <trkpt lat="42.784752" lon="-0.611899">
        <ele>2015.3</ele>
        <time>2019-08-06T13:42:32Z</time>
      </trkpt>
      <trkpt lat="42.784823" lon="-0.612004">
        <ele>2014.0</ele>
        <time>2019-08-06T13:42:42Z</time>
      </trkpt>
      <trkpt lat="42.784796" lon="-0.612134">
        <ele>2012.2</ele>
        <time>2019-08-06T13:42:55Z</time>
      </trkpt>
      <trkpt lat="42.784752" lon="-0.612261">
        <ele>2011.4</ele>
        <time>2019-08-06T13:43:05Z</time>
      </trkpt>
      <trkpt lat="42.784702" lon="-0.612373">
        <ele>2010.3</ele>
        <time>2019-08-06T13:43:14Z</time>
      </trkpt>
      <trkpt lat="42.784703" lon="-0.612494">
        <ele>2009.6</ele>
        <time>2019-08-06T13:43:24Z</time>
      </trkpt>
      <trkpt lat="42.784743" lon="-0.612611">
        <ele>2009.7</ele>
        <time>2019-08-06T13:43:32Z</time>
      </trkpt>
      <trkpt lat="42.784771" lon="-0.612738">
        <ele>2009.4</ele>
        <time>2019-08-06T13:43:40Z</time>
      </trkpt>
      <trkpt lat="42.784805" lon="-0.612856">
        <ele>2009.2</ele>
        <time>2019-08-06T13:43:47Z</time>
      </trkpt>
      <trkpt lat="42.784827" lon="-0.612985">
        <ele>2008.6</ele>
        <time>2019-08-06T13:43:54Z</time>
      </trkpt>
      <trkpt lat="42.784857" lon="-0.613084">
        <ele>2008.4</ele>
        <time>2019-08-06T13:44:01Z</time>
      </trkpt>
      <trkpt lat="42.784877" lon="-0.613209">
        <ele>2008.3</ele>
        <time>2019-08-06T13:44:09Z</time>
      </trkpt>
      <trkpt lat="42.784900" lon="-0.613332">
        <ele>2008.6</ele>
        <time>2019-08-06T13:44:17Z</time>
      </trkpt>
      <trkpt lat="42.784925" lon="-0.613439">
        <ele>2007.9</ele>
        <time>2019-08-06T13:44:25Z</time>
      </trkpt>
      <trkpt lat="42.784947" lon="-0.613571">
        <ele>2006.5</ele>
        <time>2019-08-06T13:44:34Z</time>
      </trkpt>
      <trkpt lat="42.784972" lon="-0.613672">
        <ele>2004.8</ele>
        <time>2019-08-06T13:44:45Z</time>
      </trkpt>
      <trkpt lat="42.785017" lon="-0.613765">
        <ele>2003.5</ele>
        <time>2019-08-06T13:44:52Z</time>
      </trkpt>
      <trkpt lat="42.785076" lon="-0.613877">
        <ele>2001.7</ele>
        <time>2019-08-06T13:45:03Z</time>
      </trkpt>
      <trkpt lat="42.785090" lon="-0.613987">
        <ele>1999.1</ele>
        <time>2019-08-06T13:45:13Z</time>
      </trkpt>
      <trkpt lat="42.785061" lon="-0.614091">
        <ele>1998.1</ele>
        <time>2019-08-06T13:45:21Z</time>
      </trkpt>
      <trkpt lat="42.784984" lon="-0.614194">
        <ele>1997.0</ele>
        <time>2019-08-06T13:45:30Z</time>
      </trkpt>
      <trkpt lat="42.784943" lon="-0.614292">
        <ele>1996.6</ele>
        <time>2019-08-06T13:45:38Z</time>
      </trkpt>
      <trkpt lat="42.784903" lon="-0.614395">
        <ele>1996.8</ele>
        <time>2019-08-06T13:45:45Z</time>
      </trkpt>
      <trkpt lat="42.784952" lon="-0.614508">
        <ele>1997.2</ele>
        <time>2019-08-06T13:45:52Z</time>
      </trkpt>
      <trkpt lat="42.785005" lon="-0.614610">
        <ele>1996.7</ele>
        <time>2019-08-06T13:45:59Z</time>
      </trkpt>
      <trkpt lat="42.785088" lon="-0.614658">
        <ele>1997.3</ele>
        <time>2019-08-06T13:46:07Z</time>
      </trkpt>
      <trkpt lat="42.785138" lon="-0.614789">
        <ele>1996.2</ele>
        <time>2019-08-06T13:46:19Z</time>
      </trkpt>
      <trkpt lat="42.785159" lon="-0.614917">
        <ele>1995.8</ele>
        <time>2019-08-06T13:46:28Z</time>
      </trkpt>
      <trkpt lat="42.785126" lon="-0.615040">
        <ele>1996.2</ele>
        <time>2019-08-06T13:46:36Z</time>
      </trkpt>
      <trkpt lat="42.785123" lon="-0.615161">
        <ele>1997.7</ele>
        <time>2019-08-06T13:46:44Z</time>
      </trkpt>
      <trkpt lat="42.785174" lon="-0.615267">
        <ele>1999.2</ele>
        <time>2019-08-06T13:46:52Z</time>
      </trkpt>
      <trkpt lat="42.785272" lon="-0.615326">
        <ele>1999.0</ele>
        <time>2019-08-06T13:46:59Z</time>
      </trkpt>
      <trkpt lat="42.785367" lon="-0.615337">
        <ele>1999.3</ele>
        <time>2019-08-06T13:47:07Z</time>
      </trkpt>
      <trkpt lat="42.785455" lon="-0.615390">
        <ele>2000.7</ele>
        <time>2019-08-06T13:47:15Z</time>
      </trkpt>
      <trkpt lat="42.785529" lon="-0.615442">
        <ele>2001.3</ele>
        <time>2019-08-06T13:47:22Z</time>
      </trkpt>
      <trkpt lat="42.785595" lon="-0.615492">
        <ele>2001.8</ele>
        <time>2019-08-06T13:47:29Z</time>
      </trkpt>
      <trkpt lat="42.785660" lon="-0.615577">
        <ele>2003.0</ele>
        <time>2019-08-06T13:47:36Z</time>
      </trkpt>
      <trkpt lat="42.785697" lon="-0.615697">
        <ele>2003.4</ele>
        <time>2019-08-06T13:47:42Z</time>
      </trkpt>
      <trkpt lat="42.785731" lon="-0.615819">
        <ele>2004.4</ele>
        <time>2019-08-06T13:47:49Z</time>
      </trkpt>
      <trkpt lat="42.785743" lon="-0.615958">
        <ele>2004.0</ele>
        <time>2019-08-06T13:47:58Z</time>
      </trkpt>
      <trkpt lat="42.785791" lon="-0.616078">
        <ele>2003.9</ele>
        <time>2019-08-06T13:48:06Z</time>
      </trkpt>
      <trkpt lat="42.785856" lon="-0.616160">
        <ele>2002.9</ele>
        <time>2019-08-06T13:48:14Z</time>
      </trkpt>
      <trkpt lat="42.785915" lon="-0.616250">
        <ele>2003.2</ele>
        <time>2019-08-06T13:48:20Z</time>
      </trkpt>
      <trkpt lat="42.785997" lon="-0.616331">
        <ele>2003.6</ele>
        <time>2019-08-06T13:48:27Z</time>
      </trkpt>
      <trkpt lat="42.786068" lon="-0.616429">
        <ele>2003.8</ele>
        <time>2019-08-06T13:48:34Z</time>
      </trkpt>
      <trkpt lat="42.786124" lon="-0.616538">
        <ele>2002.8</ele>
        <time>2019-08-06T13:48:41Z</time>
      </trkpt>
      <trkpt lat="42.786159" lon="-0.616655">
        <ele>2002.1</ele>
        <time>2019-08-06T13:48:49Z</time>
      </trkpt>
      <trkpt lat="42.786191" lon="-0.616763">
        <ele>2001.8</ele>
        <time>2019-08-06T13:48:55Z</time>
      </trkpt>
      <trkpt lat="42.786225" lon="-0.616858">
        <ele>2002.0</ele>
        <time>2019-08-06T13:49:01Z</time>
      </trkpt>
      <trkpt lat="42.786276" lon="-0.616950">
        <ele>2001.7</ele>
        <time>2019-08-06T13:49:08Z</time>
      </trkpt>
      <trkpt lat="42.786330" lon="-0.617055">
        <ele>2000.8</ele>
        <time>2019-08-06T13:49:14Z</time>
      </trkpt>
      <trkpt lat="42.786396" lon="-0.617111">
        <ele>2000.8</ele>
        <time>2019-08-06T13:49:20Z</time>
      </trkpt>
      <trkpt lat="42.786468" lon="-0.617197">
        <ele>2000.7</ele>
        <time>2019-08-06T13:49:26Z</time>
      </trkpt>
      <trkpt lat="42.786511" lon="-0.617291">
        <ele>2000.7</ele>
        <time>2019-08-06T13:49:34Z</time>
      </trkpt>
      <trkpt lat="42.786581" lon="-0.617367">
        <ele>2000.8</ele>
        <time>2019-08-06T13:49:40Z</time>
      </trkpt>
      <trkpt lat="42.786663" lon="-0.617461">
        <ele>2002.0</ele>
        <time>2019-08-06T13:49:47Z</time>
      </trkpt>
      <trkpt lat="42.786751" lon="-0.617514">
        <ele>2004.2</ele>
        <time>2019-08-06T13:49:53Z</time>
      </trkpt>
      <trkpt lat="42.786842" lon="-0.617587">
        <ele>2007.7</ele>
        <time>2019-08-06T13:50:00Z</time>
      </trkpt>
      <trkpt lat="42.786888" lon="-0.617716">
        <ele>2010.3</ele>
        <time>2019-08-06T13:50:10Z</time>
      </trkpt>
      <trkpt lat="42.786893" lon="-0.617824">
        <ele>2013.2</ele>
        <time>2019-08-06T13:50:20Z</time>
      </trkpt>
      <trkpt lat="42.786906" lon="-0.617940">
        <ele>2015.1</ele>
        <time>2019-08-06T13:50:30Z</time>
      </trkpt>
      <trkpt lat="42.786912" lon="-0.618051">
        <ele>2015.9</ele>
        <time>2019-08-06T13:50:51Z</time>
      </trkpt>
      <trkpt lat="42.786944" lon="-0.618143">
        <ele>2017.2</ele>
        <time>2019-08-06T13:51:06Z</time>
      </trkpt>
      <trkpt lat="42.787007" lon="-0.618223">
        <ele>2018.4</ele>
        <time>2019-08-06T13:51:14Z</time>
      </trkpt>
      <trkpt lat="42.787111" lon="-0.618280">
        <ele>2020.4</ele>
        <time>2019-08-06T13:51:21Z</time>
      </trkpt>
      <trkpt lat="42.787229" lon="-0.618284">
        <ele>2022.2</ele>
        <time>2019-08-06T13:51:27Z</time>
      </trkpt>
      <trkpt lat="42.787308" lon="-0.618389">
        <ele>2024.2</ele>
        <time>2019-08-06T13:51:33Z</time>
      </trkpt>
      <trkpt lat="42.787381" lon="-0.618492">
        <ele>2025.9</ele>
        <time>2019-08-06T13:51:41Z</time>
      </trkpt>
      <trkpt lat="42.787433" lon="-0.618602">
        <ele>2026.4</ele>
        <time>2019-08-06T13:51:49Z</time>
      </trkpt>
      <trkpt lat="42.787490" lon="-0.618708">
        <ele>2027.8</ele>
        <time>2019-08-06T13:51:56Z</time>
      </trkpt>
      <trkpt lat="42.787563" lon="-0.618835">
        <ele>2030.5</ele>
        <time>2019-08-06T13:52:04Z</time>
      </trkpt>
      <trkpt lat="42.787615" lon="-0.618955">
        <ele>2032.9</ele>
        <time>2019-08-06T13:52:12Z</time>
      </trkpt>
      <trkpt lat="42.787634" lon="-0.619076">
        <ele>2035.1</ele>
        <time>2019-08-06T13:52:20Z</time>
      </trkpt>
      <trkpt lat="42.787689" lon="-0.619184">
        <ele>2039.2</ele>
        <time>2019-08-06T13:52:30Z</time>
      </trkpt>
      <trkpt lat="42.787733" lon="-0.619287">
        <ele>2042.7</ele>
        <time>2019-08-06T13:52:39Z</time>
      </trkpt>
      <trkpt lat="42.787744" lon="-0.619395">
        <ele>2045.2</ele>
        <time>2019-08-06T13:52:46Z</time>
      </trkpt>
      <trkpt lat="42.787769" lon="-0.619505">
        <ele>2047.4</ele>
        <time>2019-08-06T13:52:53Z</time>
      </trkpt>
      <trkpt lat="42.787751" lon="-0.619600">
        <ele>2048.8</ele>
        <time>2019-08-06T13:53:00Z</time>
      </trkpt>
      <trkpt lat="42.787807" lon="-0.619698">
        <ele>2049.9</ele>
        <time>2019-08-06T13:53:08Z</time>
      </trkpt>
      <trkpt lat="42.787861" lon="-0.619817">
        <ele>2050.9</ele>
        <time>2019-08-06T13:53:15Z</time>
      </trkpt>
      <trkpt lat="42.787884" lon="-0.619972">
        <ele>2050.8</ele>
        <time>2019-08-06T13:53:25Z</time>
      </trkpt>
      <trkpt lat="42.787855" lon="-0.620087">
        <ele>2050.9</ele>
        <time>2019-08-06T13:53:35Z</time>
      </trkpt>
      <trkpt lat="42.787810" lon="-0.620208">
        <ele>2051.1</ele>
        <time>2019-08-06T13:53:44Z</time>
      </trkpt>
      <trkpt lat="42.787766" lon="-0.620316">
        <ele>2052.6</ele>
        <time>2019-08-06T13:53:53Z</time>
      </trkpt>
      <trkpt lat="42.787807" lon="-0.620450">
        <ele>2054.7</ele>
        <time>2019-08-06T13:54:00Z</time>
      </trkpt>
      <trkpt lat="42.787748" lon="-0.620559">
        <ele>2056.4</ele>
        <time>2019-08-06T13:54:11Z</time>
      </trkpt>
      <trkpt lat="42.787731" lon="-0.620672">
        <ele>2058.6</ele>
        <time>2019-08-06T13:54:18Z</time>
      </trkpt>
      <trkpt lat="42.787715" lon="-0.620797">
        <ele>2060.3</ele>
        <time>2019-08-06T13:54:24Z</time>
      </trkpt>
      <trkpt lat="42.787715" lon="-0.620930">
        <ele>2063.8</ele>
        <time>2019-08-06T13:54:35Z</time>
      </trkpt>
      <trkpt lat="42.787711" lon="-0.621025">
        <ele>2065.6</ele>
        <time>2019-08-06T13:54:44Z</time>
      </trkpt>
      <trkpt lat="42.787762" lon="-0.621142">
        <ele>2070.0</ele>
        <time>2019-08-06T13:54:56Z</time>
      </trkpt>
      <trkpt lat="42.787796" lon="-0.621252">
        <ele>2074.3</ele>
        <time>2019-08-06T13:55:06Z</time>
      </trkpt>
      <trkpt lat="42.787841" lon="-0.621365">
        <ele>2078.4</ele>
        <time>2019-08-06T13:55:16Z</time>
      </trkpt>
      <trkpt lat="42.787819" lon="-0.621453">
        <ele>2081.6</ele>
        <time>2019-08-06T13:55:25Z</time>
      </trkpt>
      <trkpt lat="42.787843" lon="-0.621556">
        <ele>2084.7</ele>
        <time>2019-08-06T13:55:34Z</time>
      </trkpt>
      <trkpt lat="42.787927" lon="-0.621623">
        <ele>2087.2</ele>
        <time>2019-08-06T13:55:42Z</time>
      </trkpt>
      <trkpt lat="42.787945" lon="-0.621732">
        <ele>2091.4</ele>
        <time>2019-08-06T13:55:52Z</time>
      </trkpt>
      <trkpt lat="42.787959" lon="-0.621862">
        <ele>2095.5</ele>
        <time>2019-08-06T13:56:01Z</time>
      </trkpt>
      <trkpt lat="42.787882" lon="-0.621945">
        <ele>2098.7</ele>
        <time>2019-08-06T13:56:13Z</time>
      </trkpt>
      <trkpt lat="42.787829" lon="-0.622027">
        <ele>2101.6</ele>
        <time>2019-08-06T13:56:28Z</time>
      </trkpt>
      <trkpt lat="42.787891" lon="-0.622112">
        <ele>2104.6</ele>
        <time>2019-08-06T13:56:43Z</time>
      </trkpt>
      <trkpt lat="42.787941" lon="-0.622225">
        <ele>2107.2</ele>
        <time>2019-08-06T13:56:57Z</time>
      </trkpt>
      <trkpt lat="42.788013" lon="-0.622277">
        <ele>2109.4</ele>
        <time>2019-08-06T13:57:07Z</time>
      </trkpt>
      <trkpt lat="42.788000" lon="-0.622385">
        <ele>2114.3</ele>
        <time>2019-08-06T13:57:27Z</time>
      </trkpt>
      <trkpt lat="42.787983" lon="-0.622510">
        <ele>2120.2</ele>
        <time>2019-08-06T13:57:49Z</time>
      </trkpt>
      <trkpt lat="42.787973" lon="-0.622595">
        <ele>2124.1</ele>
        <time>2019-08-06T13:58:04Z</time>
      </trkpt>
      <trkpt lat="42.787986" lon="-0.622680">
        <ele>2128.6</ele>
        <time>2019-08-06T13:58:21Z</time>
      </trkpt>
      <trkpt lat="42.787980" lon="-0.622776">
        <ele>2133.6</ele>
        <time>2019-08-06T13:58:42Z</time>
      </trkpt>
      <trkpt lat="42.787968" lon="-0.622857">
        <ele>2138.2</ele>
        <time>2019-08-06T13:59:02Z</time>
      </trkpt>
      <trkpt lat="42.787970" lon="-0.622937">
        <ele>2143.3</ele>
        <time>2019-08-06T13:59:18Z</time>
      </trkpt>
      <trkpt lat="42.788014" lon="-0.623016">
        <ele>2147.1</ele>
        <time>2019-08-06T13:59:34Z</time>
      </trkpt>
      <trkpt lat="42.788011" lon="-0.623101">
        <ele>2151.5</ele>
        <time>2019-08-06T13:59:55Z</time>
      </trkpt>
      <trkpt lat="42.788018" lon="-0.623183">
        <ele>2156.7</ele>
        <time>2019-08-06T14:00:12Z</time>
      </trkpt>
      <trkpt lat="42.787969" lon="-0.623264">
        <ele>2159.8</ele>
        <time>2019-08-06T14:00:27Z</time>
      </trkpt>
      <trkpt lat="42.787990" lon="-0.623351">
        <ele>2163.1</ele>
        <time>2019-08-06T14:00:41Z</time>
      </trkpt>
      <trkpt lat="42.788083" lon="-0.623412">
        <ele>2167.7</ele>
        <time>2019-08-06T14:00:56Z</time>
      </trkpt>
      <trkpt lat="42.788129" lon="-0.623492">
        <ele>2171.0</ele>
        <time>2019-08-06T14:01:12Z</time>
      </trkpt>
      <trkpt lat="42.788165" lon="-0.623585">
        <ele>2175.1</ele>
        <time>2019-08-06T14:01:33Z</time>
      </trkpt>
      <trkpt lat="42.788185" lon="-0.623639">
        <ele>2179.5</ele>
        <time>2019-08-06T14:01:54Z</time>
      </trkpt>
      <trkpt lat="42.788210" lon="-0.623717">
        <ele>2183.0</ele>
        <time>2019-08-06T14:02:10Z</time>
      </trkpt>
      <trkpt lat="42.788298" lon="-0.623775">
        <ele>2185.7</ele>
        <time>2019-08-06T14:02:28Z</time>
      </trkpt>
      <trkpt lat="42.788349" lon="-0.623853">
        <ele>2189.1</ele>
        <time>2019-08-06T14:02:43Z</time>
      </trkpt>
      <trkpt lat="42.788417" lon="-0.623935">
        <ele>2189.9</ele>
        <time>2019-08-06T14:02:56Z</time>
      </trkpt>
      <trkpt lat="42.788494" lon="-0.624016">
        <ele>2190.9</ele>
        <time>2019-08-06T14:03:10Z</time>
      </trkpt>
      <trkpt lat="42.788560" lon="-0.624055">
        <ele>2189.8</ele>
        <time>2019-08-06T14:03:33Z</time>
      </trkpt>
      <trkpt lat="42.788586" lon="-0.624000">
        <ele>2191.3</ele>
        <time>2019-08-06T14:03:51Z</time>
      </trkpt>
      <trkpt lat="42.788639" lon="-0.624111">
        <ele>2191.8</ele>
        <time>2019-08-06T14:04:07Z</time>
      </trkpt>
      <trkpt lat="42.788571" lon="-0.624185">
        <ele>2196.3</ele>
        <time>2019-08-06T14:04:37Z</time>
      </trkpt>
      <trkpt lat="42.788497" lon="-0.624245">
        <ele>2199.2</ele>
        <time>2019-08-06T14:04:54Z</time>
      </trkpt>
      <trkpt lat="42.788537" lon="-0.624332">
        <ele>2203.0</ele>
        <time>2019-08-06T14:05:08Z</time>
      </trkpt>
      <trkpt lat="42.788562" lon="-0.624449">
        <ele>2205.9</ele>
        <time>2019-08-06T14:05:28Z</time>
      </trkpt>
      <trkpt lat="42.788620" lon="-0.624539">
        <ele>2206.2</ele>
        <time>2019-08-06T14:05:41Z</time>
      </trkpt>
      <trkpt lat="42.788727" lon="-0.624544">
        <ele>2206.5</ele>
        <time>2019-08-06T14:05:51Z</time>
      </trkpt>
      <trkpt lat="42.788837" lon="-0.624601">
        <ele>2207.2</ele>
        <time>2019-08-06T14:06:01Z</time>
      </trkpt>
      <trkpt lat="42.788910" lon="-0.624676">
        <ele>2209.3</ele>
        <time>2019-08-06T14:06:13Z</time>
      </trkpt>
      <trkpt lat="42.788901" lon="-0.624773">
        <ele>2212.6</ele>
        <time>2019-08-06T14:06:27Z</time>
      </trkpt>
      <trkpt lat="42.788912" lon="-0.624847">
        <ele>2214.4</ele>
        <time>2019-08-06T14:06:39Z</time>
      </trkpt>
      <trkpt lat="42.788896" lon="-0.624972">
        <ele>2216.4</ele>
        <time>2019-08-06T14:06:51Z</time>
      </trkpt>
      <trkpt lat="42.788902" lon="-0.625106">
        <ele>2217.8</ele>
        <time>2019-08-06T14:07:00Z</time>
      </trkpt>
      <trkpt lat="42.788920" lon="-0.625241">
        <ele>2219.4</ele>
        <time>2019-08-06T14:07:09Z</time>
      </trkpt>
      <trkpt lat="42.788992" lon="-0.625350">
        <ele>2222.4</ele>
        <time>2019-08-06T14:07:22Z</time>
      </trkpt>
      <trkpt lat="42.789043" lon="-0.625466">
        <ele>2226.2</ele>
        <time>2019-08-06T14:07:38Z</time>
      </trkpt>
      <trkpt lat="42.789059" lon="-0.625587">
        <ele>2230.7</ele>
        <time>2019-08-06T14:07:53Z</time>
      </trkpt>
      <trkpt lat="42.789087" lon="-0.625694">
        <ele>2234.7</ele>
        <time>2019-08-06T14:08:06Z</time>
      </trkpt>
      <trkpt lat="42.789116" lon="-0.625810">
        <ele>2235.9</ele>
        <time>2019-08-06T14:08:17Z</time>
      </trkpt>
      <trkpt lat="42.789130" lon="-0.625932">
        <ele>2237.3</ele>
        <time>2019-08-06T14:08:27Z</time>
      </trkpt>
      <trkpt lat="42.789148" lon="-0.626033">
        <ele>2239.8</ele>
        <time>2019-08-06T14:08:41Z</time>
      </trkpt>
      <trkpt lat="42.789187" lon="-0.626133">
        <ele>2239.4</ele>
        <time>2019-08-06T14:08:52Z</time>
      </trkpt>
      <trkpt lat="42.789185" lon="-0.626258">
        <ele>2237.8</ele>
        <time>2019-08-06T14:09:02Z</time>
      </trkpt>
      <trkpt lat="42.789200" lon="-0.626379">
        <ele>2237.6</ele>
        <time>2019-08-06T14:09:11Z</time>
      </trkpt>
      <trkpt lat="42.789253" lon="-0.626478">
        <ele>2237.9</ele>
        <time>2019-08-06T14:09:19Z</time>
      </trkpt>
      <trkpt lat="42.789309" lon="-0.626592">
        <ele>2238.4</ele>
        <time>2019-08-06T14:09:27Z</time>
      </trkpt>
      <trkpt lat="42.789361" lon="-0.626709">
        <ele>2238.4</ele>
        <time>2019-08-06T14:09:36Z</time>
      </trkpt>
      <trkpt lat="42.789397" lon="-0.626819">
        <ele>2238.3</ele>
        <time>2019-08-06T14:09:44Z</time>
      </trkpt>
      <trkpt lat="42.789477" lon="-0.626913">
        <ele>2238.6</ele>
        <time>2019-08-06T14:09:52Z</time>
      </trkpt>
      <trkpt lat="42.789510" lon="-0.626990">
        <ele>2238.5</ele>
        <time>2019-08-06T14:10:16Z</time>
      </trkpt>
      <trkpt lat="42.789530" lon="-0.627115">
        <ele>2238.8</ele>
        <time>2019-08-06T14:10:28Z</time>
      </trkpt>
      <trkpt lat="42.789545" lon="-0.627241">
        <ele>2239.5</ele>
        <time>2019-08-06T14:10:40Z</time>
      </trkpt>
      <trkpt lat="42.789562" lon="-0.627363">
        <ele>2240.4</ele>
        <time>2019-08-06T14:10:49Z</time>
      </trkpt>
      <trkpt lat="42.789625" lon="-0.627465">
        <ele>2240.9</ele>
        <time>2019-08-06T14:11:02Z</time>
      </trkpt>
      <trkpt lat="42.789636" lon="-0.627584">
        <ele>2241.0</ele>
        <time>2019-08-06T14:11:10Z</time>
      </trkpt>
      <trkpt lat="42.789677" lon="-0.627667">
        <ele>2242.0</ele>
        <time>2019-08-06T14:11:30Z</time>
      </trkpt>
      <trkpt lat="42.789735" lon="-0.627766">
        <ele>2243.0</ele>
        <time>2019-08-06T14:11:38Z</time>
      </trkpt>
      <trkpt lat="42.789758" lon="-0.627896">
        <ele>2243.3</ele>
        <time>2019-08-06T14:11:46Z</time>
      </trkpt>
      <trkpt lat="42.789798" lon="-0.627995">
        <ele>2243.3</ele>
        <time>2019-08-06T14:11:54Z</time>
      </trkpt>
      <trkpt lat="42.789824" lon="-0.628127">
        <ele>2243.9</ele>
        <time>2019-08-06T14:12:02Z</time>
      </trkpt>
      <trkpt lat="42.789847" lon="-0.628250">
        <ele>2244.6</ele>
        <time>2019-08-06T14:12:10Z</time>
      </trkpt>
      <trkpt lat="42.789879" lon="-0.628357">
        <ele>2245.2</ele>
        <time>2019-08-06T14:12:18Z</time>
      </trkpt>
      <trkpt lat="42.789946" lon="-0.628457">
        <ele>2246.0</ele>
        <time>2019-08-06T14:12:26Z</time>
      </trkpt>
      <trkpt lat="42.789975" lon="-0.628576">
        <ele>2246.5</ele>
        <time>2019-08-06T14:12:34Z</time>
      </trkpt>
      <trkpt lat="42.790021" lon="-0.628702">
        <ele>2245.8</ele>
        <time>2019-08-06T14:12:44Z</time>
      </trkpt>
      <trkpt lat="42.790030" lon="-0.628833">
        <ele>2245.8</ele>
        <time>2019-08-06T14:12:53Z</time>
      </trkpt>
      <trkpt lat="42.790043" lon="-0.628861">
        <ele>2245.9</ele>
        <time>2019-08-06T14:13:09Z</time>
      </trkpt>
      <trkpt lat="42.790046" lon="-0.628949">
        <ele>2246.2</ele>
        <time>2019-08-06T14:13:20Z</time>
      </trkpt>
      <trkpt lat="42.790050" lon="-0.629076">
        <ele>2246.7</ele>
        <time>2019-08-06T14:13:28Z</time>
      </trkpt>
      <trkpt lat="42.790074" lon="-0.629205">
        <ele>2247.8</ele>
        <time>2019-08-06T14:13:37Z</time>
      </trkpt>
      <trkpt lat="42.790061" lon="-0.629315">
        <ele>2249.2</ele>
        <time>2019-08-06T14:13:47Z</time>
      </trkpt>
      <trkpt lat="42.790074" lon="-0.629437">
        <ele>2250.5</ele>
        <time>2019-08-06T14:14:05Z</time>
      </trkpt>
      <trkpt lat="42.790085" lon="-0.629536">
        <ele>2254.2</ele>
        <time>2019-08-06T14:14:32Z</time>
      </trkpt>
      <trkpt lat="42.790100" lon="-0.629682">
        <ele>2254.6</ele>
        <time>2019-08-06T14:14:42Z</time>
      </trkpt>
      <trkpt lat="42.790166" lon="-0.629789">
        <ele>2255.7</ele>
        <time>2019-08-06T14:14:58Z</time>
      </trkpt>
      <trkpt lat="42.790175" lon="-0.629911">
        <ele>2257.2</ele>
        <time>2019-08-06T14:15:10Z</time>
      </trkpt>
      <trkpt lat="42.790190" lon="-0.630028">
        <ele>2259.8</ele>
        <time>2019-08-06T14:15:23Z</time>
      </trkpt>
      <trkpt lat="42.790194" lon="-0.630155">
        <ele>2261.8</ele>
        <time>2019-08-06T14:15:35Z</time>
      </trkpt>
      <trkpt lat="42.790240" lon="-0.630273">
        <ele>2263.3</ele>
        <time>2019-08-06T14:15:44Z</time>
      </trkpt>
      <trkpt lat="42.790247" lon="-0.630356">
        <ele>2265.2</ele>
        <time>2019-08-06T14:16:00Z</time>
      </trkpt>
      <trkpt lat="42.790259" lon="-0.630467">
        <ele>2268.4</ele>
        <time>2019-08-06T14:16:09Z</time>
      </trkpt>
      <trkpt lat="42.790282" lon="-0.630577">
        <ele>2272.0</ele>
        <time>2019-08-06T14:16:16Z</time>
      </trkpt>
      <trkpt lat="42.790337" lon="-0.630679">
        <ele>2275.4</ele>
        <time>2019-08-06T14:16:23Z</time>
      </trkpt>
      <trkpt lat="42.790366" lon="-0.630788">
        <ele>2277.8</ele>
        <time>2019-08-06T14:16:29Z</time>
      </trkpt>
      <trkpt lat="42.790398" lon="-0.630893">
        <ele>2280.0</ele>
        <time>2019-08-06T14:16:37Z</time>
      </trkpt>
      <trkpt lat="42.790455" lon="-0.631010">
        <ele>2283.8</ele>
        <time>2019-08-06T14:16:50Z</time>
      </trkpt>
      <trkpt lat="42.790467" lon="-0.631108">
        <ele>2287.7</ele>
        <time>2019-08-06T14:17:04Z</time>
      </trkpt>
      <trkpt lat="42.790485" lon="-0.631236">
        <ele>2290.9</ele>
        <time>2019-08-06T14:17:23Z</time>
      </trkpt>
      <trkpt lat="42.790531" lon="-0.631321">
        <ele>2293.6</ele>
        <time>2019-08-06T14:17:42Z</time>
      </trkpt>
      <trkpt lat="42.790457" lon="-0.631425">
        <ele>2296.5</ele>
        <time>2019-08-06T14:18:36Z</time>
      </trkpt>
      <trkpt lat="42.790395" lon="-0.631499">
        <ele>2301.2</ele>
        <time>2019-08-06T14:18:57Z</time>
      </trkpt>
      <trkpt lat="42.790309" lon="-0.631482">
        <ele>2303.4</ele>
        <time>2019-08-06T14:19:15Z</time>
      </trkpt>
      <trkpt lat="42.790223" lon="-0.631508">
        <ele>2310.1</ele>
        <time>2019-08-06T14:19:43Z</time>
      </trkpt>
      <trkpt lat="42.790178" lon="-0.631610">
        <ele>2314.3</ele>
        <time>2019-08-06T14:19:57Z</time>
      </trkpt>
      <trkpt lat="42.790114" lon="-0.631697">
        <ele>2318.1</ele>
        <time>2019-08-06T14:20:10Z</time>
      </trkpt>
      <trkpt lat="42.790041" lon="-0.631725">
        <ele>2321.9</ele>
        <time>2019-08-06T14:20:25Z</time>
      </trkpt>
      <trkpt lat="42.789966" lon="-0.631736">
        <ele>2325.1</ele>
        <time>2019-08-06T14:20:38Z</time>
      </trkpt>
      <trkpt lat="42.789884" lon="-0.631780">
        <ele>2328.8</ele>
        <time>2019-08-06T14:20:54Z</time>
      </trkpt>
      <trkpt lat="42.789810" lon="-0.631705">
        <ele>2332.2</ele>
        <time>2019-08-06T14:21:08Z</time>
      </trkpt>
      <trkpt lat="42.789728" lon="-0.631739">
        <ele>2335.3</ele>
        <time>2019-08-06T14:21:20Z</time>
      </trkpt>
      <trkpt lat="42.789665" lon="-0.631771">
        <ele>2338.8</ele>
        <time>2019-08-06T14:21:32Z</time>
      </trkpt>
      <trkpt lat="42.789612" lon="-0.631762">
        <ele>2343.8</ele>
        <time>2019-08-06T14:21:49Z</time>
      </trkpt>
      <trkpt lat="42.789525" lon="-0.631786">
        <ele>2347.9</ele>
        <time>2019-08-06T14:22:09Z</time>
      </trkpt>
      <trkpt lat="42.789486" lon="-0.631867">
        <ele>2354.4</ele>
        <time>2019-08-06T14:22:44Z</time>
      </trkpt>
      <trkpt lat="42.789432" lon="-0.631958">
        <ele>2358.3</ele>
        <time>2019-08-06T14:23:01Z</time>
      </trkpt>
      <trkpt lat="42.789385" lon="-0.631996">
        <ele>2363.2</ele>
        <time>2019-08-06T14:23:22Z</time>
      </trkpt>
      <trkpt lat="42.789321" lon="-0.631895">
        <ele>2366.4</ele>
        <time>2019-08-06T14:23:37Z</time>
      </trkpt>
      <trkpt lat="42.789268" lon="-0.631896">
        <ele>2370.6</ele>
        <time>2019-08-06T14:23:54Z</time>
      </trkpt>
      <trkpt lat="42.789189" lon="-0.631933">
        <ele>2375.5</ele>
        <time>2019-08-06T14:24:11Z</time>
      </trkpt>
      <trkpt lat="42.789135" lon="-0.631871">
        <ele>2378.0</ele>
        <time>2019-08-06T14:24:33Z</time>
      </trkpt>
      <trkpt lat="42.789077" lon="-0.631893">
        <ele>2382.1</ele>
        <time>2019-08-06T14:25:04Z</time>
      </trkpt>
      <trkpt lat="42.789006" lon="-0.631929">
        <ele>2384.5</ele>
        <time>2019-08-06T14:25:21Z</time>
      </trkpt>
      <trkpt lat="42.788922" lon="-0.631948">
        <ele>2386.7</ele>
        <time>2019-08-06T14:25:45Z</time>
      </trkpt>
      <trkpt lat="42.788837" lon="-0.631912">
        <ele>2387.2</ele>
        <time>2019-08-06T14:25:57Z</time>
      </trkpt>
      <trkpt lat="42.788767" lon="-0.632002">
        <ele>2388.3</ele>
        <time>2019-08-06T14:26:12Z</time>
      </trkpt>
      <trkpt lat="42.788778" lon="-0.632132">
        <ele>2389.7</ele>
        <time>2019-08-06T14:26:27Z</time>
      </trkpt>
      <trkpt lat="42.788763" lon="-0.632231">
        <ele>2391.8</ele>
        <time>2019-08-06T14:26:44Z</time>
      </trkpt>
      <trkpt lat="42.788704" lon="-0.632212">
        <ele>2392.4</ele>
        <time>2019-08-06T14:27:24Z</time>
      </trkpt>
      <trkpt lat="42.788685" lon="-0.632197">
        <ele>2392.5</ele>
        <time>2019-08-06T14:27:49Z</time>
      </trkpt>
      <trkpt lat="42.788597" lon="-0.632188">
        <ele>2392.9</ele>
        <time>2019-08-06T14:28:05Z</time>
      </trkpt>
      <trkpt lat="42.788581" lon="-0.632231">
        <ele>2394.4</ele>
        <time>2019-08-06T14:28:30Z</time>
      </trkpt>
      <trkpt lat="42.788514" lon="-0.632251">
        <ele>2398.1</ele>
        <time>2019-08-06T14:28:43Z</time>
      </trkpt>
      <trkpt lat="42.788424" lon="-0.632280">
        <ele>2400.4</ele>
        <time>2019-08-06T14:28:51Z</time>
      </trkpt>
      <trkpt lat="42.788361" lon="-0.632354">
        <ele>2403.2</ele>
        <time>2019-08-06T14:29:00Z</time>
      </trkpt>
      <trkpt lat="42.788321" lon="-0.632455">
        <ele>2406.0</ele>
        <time>2019-08-06T14:29:17Z</time>
      </trkpt>
      <trkpt lat="42.788246" lon="-0.632460">
        <ele>2409.8</ele>
        <time>2019-08-06T14:29:40Z</time>
      </trkpt>
      <trkpt lat="42.788200" lon="-0.632519">
        <ele>2414.1</ele>
        <time>2019-08-06T14:30:07Z</time>
      </trkpt>
      <trkpt lat="42.788165" lon="-0.632592">
        <ele>2418.1</ele>
        <time>2019-08-06T14:30:26Z</time>
      </trkpt>
      <trkpt lat="42.788118" lon="-0.632664">
        <ele>2422.4</ele>
        <time>2019-08-06T14:30:46Z</time>
      </trkpt>
      <trkpt lat="42.788027" lon="-0.632670">
        <ele>2426.9</ele>
        <time>2019-08-06T14:31:05Z</time>
      </trkpt>
      <trkpt lat="42.787956" lon="-0.632686">
        <ele>2432.2</ele>
        <time>2019-08-06T14:31:26Z</time>
      </trkpt>
      <trkpt lat="42.787899" lon="-0.632719">
        <ele>2435.3</ele>
        <time>2019-08-06T14:31:49Z</time>
      </trkpt>
      <trkpt lat="42.787894" lon="-0.632741">
        <ele>2439.9</ele>
        <time>2019-08-06T14:33:37Z</time>
      </trkpt>
      <trkpt lat="42.787877" lon="-0.632837">
        <ele>2444.0</ele>
        <time>2019-08-06T14:33:57Z</time>
      </trkpt>
      <trkpt lat="42.787870" lon="-0.632936">
        <ele>2447.9</ele>
        <time>2019-08-06T14:34:15Z</time>
      </trkpt>
      <trkpt lat="42.787896" lon="-0.633048">
        <ele>2451.2</ele>
        <time>2019-08-06T14:34:32Z</time>
      </trkpt>
      <trkpt lat="42.787890" lon="-0.633110">
        <ele>2454.7</ele>
        <time>2019-08-06T14:34:49Z</time>
      </trkpt>
      <trkpt lat="42.787886" lon="-0.633204">
        <ele>2459.1</ele>
        <time>2019-08-06T14:35:12Z</time>
      </trkpt>
      <trkpt lat="42.787787" lon="-0.633212">
        <ele>2463.7</ele>
        <time>2019-08-06T14:35:34Z</time>
      </trkpt>
      <trkpt lat="42.787800" lon="-0.633338">
        <ele>2466.6</ele>
        <time>2019-08-06T14:35:50Z</time>
      </trkpt>
      <trkpt lat="42.787821" lon="-0.633440">
        <ele>2469.7</ele>
        <time>2019-08-06T14:36:06Z</time>
      </trkpt>
      <trkpt lat="42.787722" lon="-0.633437">
        <ele>2474.6</ele>
        <time>2019-08-06T14:36:27Z</time>
      </trkpt>
      <trkpt lat="42.787701" lon="-0.633514">
        <ele>2478.4</ele>
        <time>2019-08-06T14:36:44Z</time>
      </trkpt>
      <trkpt lat="42.787721" lon="-0.633598">
        <ele>2480.6</ele>
        <time>2019-08-06T14:37:00Z</time>
      </trkpt>
      <trkpt lat="42.787733" lon="-0.633603">
        <ele>2483.9</ele>
        <time>2019-08-06T14:38:04Z</time>
      </trkpt>
      <trkpt lat="42.787836" lon="-0.633648">
        <ele>2488.4</ele>
        <time>2019-08-06T14:38:21Z</time>
      </trkpt>
      <trkpt lat="42.787904" lon="-0.633720">
        <ele>2491.9</ele>
        <time>2019-08-06T14:38:34Z</time>
      </trkpt>
      <trkpt lat="42.787934" lon="-0.633846">
        <ele>2495.4</ele>
        <time>2019-08-06T14:38:48Z</time>
      </trkpt>
      <trkpt lat="42.788003" lon="-0.633897">
        <ele>2499.4</ele>
        <time>2019-08-06T14:39:04Z</time>
      </trkpt>
      <trkpt lat="42.788076" lon="-0.633935">
        <ele>2504.2</ele>
        <time>2019-08-06T14:39:22Z</time>
      </trkpt>
      <trkpt lat="42.788110" lon="-0.634025">
        <ele>2508.2</ele>
        <time>2019-08-06T14:39:37Z</time>
      </trkpt>
      <trkpt lat="42.788122" lon="-0.634136">
        <ele>2512.1</ele>
        <time>2019-08-06T14:39:51Z</time>
      </trkpt>
      <trkpt lat="42.788137" lon="-0.634240">
        <ele>2515.0</ele>
        <time>2019-08-06T14:40:04Z</time>
      </trkpt>
      <trkpt lat="42.788124" lon="-0.634374">
        <ele>2518.4</ele>
        <time>2019-08-06T14:40:18Z</time>
      </trkpt>
      <trkpt lat="42.788141" lon="-0.634503">
        <ele>2522.0</ele>
        <time>2019-08-06T14:40:31Z</time>
      </trkpt>
      <trkpt lat="42.788132" lon="-0.634602">
        <ele>2525.2</ele>
        <time>2019-08-06T14:40:44Z</time>
      </trkpt>
      <trkpt lat="42.788123" lon="-0.634713">
        <ele>2529.6</ele>
        <time>2019-08-06T14:41:01Z</time>
      </trkpt>
      <trkpt lat="42.788090" lon="-0.634825">
        <ele>2532.2</ele>
        <time>2019-08-06T14:41:15Z</time>
      </trkpt>
      <trkpt lat="42.788130" lon="-0.634910">
        <ele>2536.5</ele>
        <time>2019-08-06T14:42:05Z</time>
      </trkpt>
      <trkpt lat="42.788099" lon="-0.635021">
        <ele>2541.4</ele>
        <time>2019-08-06T14:42:23Z</time>
      </trkpt>
      <trkpt lat="42.788086" lon="-0.635137">
        <ele>2545.9</ele>
        <time>2019-08-06T14:42:40Z</time>
      </trkpt>
      <trkpt lat="42.788060" lon="-0.635249">
        <ele>2549.0</ele>
        <time>2019-08-06T14:42:56Z</time>
      </trkpt>
      <trkpt lat="42.788026" lon="-0.635343">
        <ele>2554.0</ele>
        <time>2019-08-06T14:43:18Z</time>
      </trkpt>
      <trkpt lat="42.787987" lon="-0.635443">
        <ele>2557.0</ele>
        <time>2019-08-06T14:43:32Z</time>
      </trkpt>
      <trkpt lat="42.787941" lon="-0.635530">
        <ele>2558.9</ele>
        <time>2019-08-06T14:43:43Z</time>
      </trkpt>
      <trkpt lat="42.787888" lon="-0.635622">
        <ele>2560.6</ele>
        <time>2019-08-06T14:43:57Z</time>
      </trkpt>
      <trkpt lat="42.787797" lon="-0.635647">
        <ele>2563.1</ele>
        <time>2019-08-06T14:44:10Z</time>
      </trkpt>
      <trkpt lat="42.787739" lon="-0.635700">
        <ele>2565.9</ele>
        <time>2019-08-06T14:44:32Z</time>
      </trkpt>
      <trkpt lat="42.787640" lon="-0.635583">
        <ele>2568.8</ele>
        <time>2019-08-06T14:44:47Z</time>
      </trkpt>
      <trkpt lat="42.787532" lon="-0.635494">
        <ele>2573.4</ele>
        <time>2019-08-06T14:45:10Z</time>
      </trkpt>
      <trkpt lat="42.787463" lon="-0.635538">
        <ele>2577.7</ele>
        <time>2019-08-06T14:45:31Z</time>
      </trkpt>
      <trkpt lat="42.787424" lon="-0.635574">
        <ele>2582.9</ele>
        <time>2019-08-06T14:45:57Z</time>
      </trkpt>
      <trkpt lat="42.787340" lon="-0.635596">
        <ele>2587.6</ele>
        <time>2019-08-06T14:46:19Z</time>
      </trkpt>
      <trkpt lat="42.787281" lon="-0.635645">
        <ele>2591.3</ele>
        <time>2019-08-06T14:46:40Z</time>
      </trkpt>
      <trkpt lat="42.787289" lon="-0.635730">
        <ele>2594.9</ele>
        <time>2019-08-06T14:47:50Z</time>
      </trkpt>
      <trkpt lat="42.787244" lon="-0.635835">
        <ele>2598.6</ele>
        <time>2019-08-06T14:50:12Z</time>
      </trkpt>
      <trkpt lat="42.787178" lon="-0.635921">
        <ele>2600.6</ele>
        <time>2019-08-06T14:51:09Z</time>
      </trkpt>
      <trkpt lat="42.787212" lon="-0.635998">
        <ele>2603.7</ele>
        <time>2019-08-06T14:52:00Z</time>
      </trkpt>
      <trkpt lat="42.787278" lon="-0.636067">
        <ele>2605.8</ele>
        <time>2019-08-06T14:52:14Z</time>
      </trkpt>
      <trkpt lat="42.787340" lon="-0.636146">
        <ele>2608.8</ele>
        <time>2019-08-06T14:52:29Z</time>
      </trkpt>
      <trkpt lat="42.787420" lon="-0.636176">
        <ele>2612.1</ele>
        <time>2019-08-06T14:52:48Z</time>
      </trkpt>
      <trkpt lat="42.787493" lon="-0.636168">
        <ele>2615.6</ele>
        <time>2019-08-06T14:53:08Z</time>
      </trkpt>
      <trkpt lat="42.787562" lon="-0.636198">
        <ele>2618.7</ele>
        <time>2019-08-06T14:53:31Z</time>
      </trkpt>
      <trkpt lat="42.787622" lon="-0.636278">
        <ele>2620.0</ele>
        <time>2019-08-06T14:54:25Z</time>
      </trkpt>
      <trkpt lat="42.787691" lon="-0.636383">
        <ele>2621.2</ele>
        <time>2019-08-06T14:54:37Z</time>
      </trkpt>
      <trkpt lat="42.787745" lon="-0.636489">
        <ele>2622.3</ele>
        <time>2019-08-06T14:54:47Z</time>
      </trkpt>
      <trkpt lat="42.787793" lon="-0.636618">
        <ele>2623.2</ele>
        <time>2019-08-06T14:54:59Z</time>
      </trkpt>
      <trkpt lat="42.787825" lon="-0.636753">
        <ele>2624.7</ele>
        <time>2019-08-06T14:55:12Z</time>
      </trkpt>
      <trkpt lat="42.787854" lon="-0.636883">
        <ele>2626.1</ele>
        <time>2019-08-06T14:55:24Z</time>
      </trkpt>
      <trkpt lat="42.787900" lon="-0.637010">
        <ele>2627.6</ele>
        <time>2019-08-06T14:55:36Z</time>
      </trkpt>
      <trkpt lat="42.787952" lon="-0.637143">
        <ele>2628.9</ele>
        <time>2019-08-06T14:55:48Z</time>
      </trkpt>
      <trkpt lat="42.787980" lon="-0.637256">
        <ele>2629.0</ele>
        <time>2019-08-06T14:56:17Z</time>
      </trkpt>
      <trkpt lat="42.788003" lon="-0.637398">
        <ele>2630.9</ele>
        <time>2019-08-06T14:56:35Z</time>
      </trkpt>
      <trkpt lat="42.788036" lon="-0.637525">
        <ele>2632.6</ele>
        <time>2019-08-06T14:56:50Z</time>
      </trkpt>
      <trkpt lat="42.788102" lon="-0.637619">
        <ele>2633.3</ele>
        <time>2019-08-06T14:57:08Z</time>
      </trkpt>
      <trkpt lat="42.788124" lon="-0.637751">
        <ele>2633.5</ele>
        <time>2019-08-06T14:57:23Z</time>
      </trkpt>
      <trkpt lat="42.788128" lon="-0.637866">
        <ele>2632.3</ele>
        <time>2019-08-06T14:57:38Z</time>
      </trkpt>
      <trkpt lat="42.788159" lon="-0.637999">
        <ele>2632.0</ele>
        <time>2019-08-06T14:57:55Z</time>
      </trkpt>
      <trkpt lat="42.788150" lon="-0.638132">
        <ele>2633.7</ele>
        <time>2019-08-06T14:58:14Z</time>
      </trkpt>
      <trkpt lat="42.788142" lon="-0.638251">
        <ele>2634.2</ele>
        <time>2019-08-06T14:58:30Z</time>
      </trkpt>
      <trkpt lat="42.788168" lon="-0.638393">
        <ele>2635.1</ele>
        <time>2019-08-06T14:58:43Z</time>
      </trkpt>
      <trkpt lat="42.788182" lon="-0.638523">
        <ele>2637.6</ele>
        <time>2019-08-06T14:59:01Z</time>
      </trkpt>
      <trkpt lat="42.788200" lon="-0.638659">
        <ele>2639.6</ele>
        <time>2019-08-06T14:59:18Z</time>
      </trkpt>
      <trkpt lat="42.788239" lon="-0.638788">
        <ele>2642.7</ele>
        <time>2019-08-06T14:59:37Z</time>
      </trkpt>
      <trkpt lat="42.788251" lon="-0.638906">
        <ele>2645.2</ele>
        <time>2019-08-06T14:59:56Z</time>
      </trkpt>
      <trkpt lat="42.788291" lon="-0.639035">
        <ele>2647.6</ele>
        <time>2019-08-06T15:00:12Z</time>
      </trkpt>
      <trkpt lat="42.788316" lon="-0.639157">
        <ele>2649.0</ele>
        <time>2019-08-06T15:00:32Z</time>
      </trkpt>
      <trkpt lat="42.788347" lon="-0.639277">
        <ele>2650.2</ele>
        <time>2019-08-06T15:00:48Z</time>
      </trkpt>
      <trkpt lat="42.788372" lon="-0.639402">
        <ele>2653.6</ele>
        <time>2019-08-06T15:01:06Z</time>
      </trkpt>
      <trkpt lat="42.788416" lon="-0.639492">
        <ele>2656.7</ele>
        <time>2019-08-06T15:01:28Z</time>
      </trkpt>
      <trkpt lat="42.788421" lon="-0.639598">
        <ele>2661.1</ele>
        <time>2019-08-06T15:01:50Z</time>
      </trkpt>
      <trkpt lat="42.788406" lon="-0.639718">
        <ele>2662.3</ele>
        <time>2019-08-06T15:02:11Z</time>
      </trkpt>
      <trkpt lat="42.788396" lon="-0.639848">
        <ele>2663.7</ele>
        <time>2019-08-06T15:02:29Z</time>
      </trkpt>
      <trkpt lat="42.788437" lon="-0.639894">
        <ele>2665.7</ele>
        <time>2019-08-06T15:02:50Z</time>
      </trkpt>
      <trkpt lat="42.788503" lon="-0.639944">
        <ele>2666.7</ele>
        <time>2019-08-06T15:03:08Z</time>
      </trkpt>
      <trkpt lat="42.788500" lon="-0.639971">
        <ele>2661.8</ele>
        <time>2019-08-06T15:32:04Z</time>
      </trkpt>
    </trkseg>
  </trk>
</gpx>

